<?xml version="1.0" encoding="UTF-8" standalone="no" ?>
<gpx xmlns="http://www.topografix.com/GPX/1/1" xmlns:xsi="http://www.w3.org/2001/XMLSchema-instance" xsi:schemaLocation="http://www.topografix.com/GPX/1/1 http://www.topografix.com/GPX/1/1/gpx.xsd" version="1.1" creator="VisuGPX - https://www.visugpx.com">
  <metadata>
    <name>sortie ski de rando 24 nov 2013 </name>
    <desc><![CDATA[à partir de Siriex hautes pyrénées ]]></desc>
  </metadata>
  <trk>
    <name><![CDATA[Tracé actuel: 24 NOV 2013 09:20]]></name>
    <trkseg>
      <trkpt lat="42.96785" lon="-0.1483">
        <ele>970.59</ele>
        <time>2013-11-24T08:20:05Z</time>
      </trkpt>
      <trkpt lat="42.96782" lon="-0.14841">
        <ele>972.51</ele>
        <time>2013-11-24T08:20:36Z</time>
      </trkpt>
      <trkpt lat="42.96768" lon="-0.14877">
        <ele>979.72</ele>
        <time>2013-11-24T08:21:06Z</time>
      </trkpt>
      <trkpt lat="42.9675" lon="-0.14911">
        <ele>985.97</ele>
        <time>2013-11-24T08:21:36Z</time>
      </trkpt>
      <trkpt lat="42.96734" lon="-0.14943">
        <ele>993.18</ele>
        <time>2013-11-24T08:22:06Z</time>
      </trkpt>
      <trkpt lat="42.96715" lon="-0.14974">
        <ele>999.43</ele>
        <time>2013-11-24T08:22:36Z</time>
      </trkpt>
      <trkpt lat="42.96697" lon="-0.15004">
        <ele>1003.27</ele>
        <time>2013-11-24T08:23:06Z</time>
      </trkpt>
      <trkpt lat="42.96678" lon="-0.15034">
        <ele>1008.08</ele>
        <time>2013-11-24T08:23:36Z</time>
      </trkpt>
      <trkpt lat="42.96657" lon="-0.15062">
        <ele>1008.08</ele>
        <time>2013-11-24T08:24:06Z</time>
      </trkpt>
      <trkpt lat="42.96636" lon="-0.15089">
        <ele>1006.16</ele>
        <time>2013-11-24T08:24:36Z</time>
      </trkpt>
      <trkpt lat="42.96611" lon="-0.1511">
        <ele>1008.08</ele>
        <time>2013-11-24T08:25:06Z</time>
      </trkpt>
      <trkpt lat="42.96578" lon="-0.15124">
        <ele>1003.75</ele>
        <time>2013-11-24T08:25:36Z</time>
      </trkpt>
      <trkpt lat="42.96557" lon="-0.15136">
        <ele>1003.75</ele>
        <time>2013-11-24T08:26:06Z</time>
      </trkpt>
      <trkpt lat="42.96556" lon="-0.15136">
        <ele>1004.23</ele>
        <time>2013-11-24T08:26:36Z</time>
      </trkpt>
      <trkpt lat="42.96551" lon="-0.15136">
        <ele>1006.16</ele>
        <time>2013-11-24T08:27:06Z</time>
      </trkpt>
      <trkpt lat="42.96552" lon="-0.15136">
        <ele>1006.16</ele>
        <time>2013-11-24T08:27:36Z</time>
      </trkpt>
      <trkpt lat="42.96554" lon="-0.15133">
        <ele>1001.83</ele>
        <time>2013-11-24T08:28:06Z</time>
      </trkpt>
      <trkpt lat="42.96539" lon="-0.1514">
        <ele>1000.39</ele>
        <time>2013-11-24T08:28:36Z</time>
      </trkpt>
      <trkpt lat="42.9651" lon="-0.15141">
        <ele>1002.31</ele>
        <time>2013-11-24T08:29:06Z</time>
      </trkpt>
      <trkpt lat="42.96479" lon="-0.15137">
        <ele>1004.72</ele>
        <time>2013-11-24T08:29:36Z</time>
      </trkpt>
      <trkpt lat="42.96448" lon="-0.15124">
        <ele>1006.64</ele>
        <time>2013-11-24T08:30:06Z</time>
      </trkpt>
      <trkpt lat="42.96423" lon="-0.15107">
        <ele>1009.04</ele>
        <time>2013-11-24T08:30:36Z</time>
      </trkpt>
      <trkpt lat="42.96415" lon="-0.15085">
        <ele>1013.37</ele>
        <time>2013-11-24T08:31:06Z</time>
      </trkpt>
      <trkpt lat="42.96447" lon="-0.15092">
        <ele>1013.85</ele>
        <time>2013-11-24T08:31:36Z</time>
      </trkpt>
      <trkpt lat="42.96477" lon="-0.15098">
        <ele>1014.33</ele>
        <time>2013-11-24T08:32:06Z</time>
      </trkpt>
      <trkpt lat="42.96504" lon="-0.15103">
        <ele>1016.73</ele>
        <time>2013-11-24T08:32:36Z</time>
      </trkpt>
      <trkpt lat="42.96527" lon="-0.15099">
        <ele>1021.54</ele>
        <time>2013-11-24T08:33:06Z</time>
      </trkpt>
      <trkpt lat="42.96547" lon="-0.15082">
        <ele>1024.9</ele>
        <time>2013-11-24T08:33:36Z</time>
      </trkpt>
      <trkpt lat="42.96567" lon="-0.1506">
        <ele>1028.27</ele>
        <time>2013-11-24T08:34:06Z</time>
      </trkpt>
      <trkpt lat="42.96584" lon="-0.15031">
        <ele>1032.11</ele>
        <time>2013-11-24T08:34:36Z</time>
      </trkpt>
      <trkpt lat="42.96596" lon="-0.15001">
        <ele>1035</ele>
        <time>2013-11-24T08:35:06Z</time>
      </trkpt>
      <trkpt lat="42.96602" lon="-0.14983">
        <ele>1035</ele>
        <time>2013-11-24T08:35:36Z</time>
      </trkpt>
      <trkpt lat="42.96599" lon="-0.1498">
        <ele>1038.36</ele>
        <time>2013-11-24T08:36:06Z</time>
      </trkpt>
      <trkpt lat="42.96613" lon="-0.14947">
        <ele>1041.25</ele>
        <time>2013-11-24T08:36:36Z</time>
      </trkpt>
      <trkpt lat="42.96625" lon="-0.14915">
        <ele>1044.13</ele>
        <time>2013-11-24T08:37:06Z</time>
      </trkpt>
      <trkpt lat="42.96634" lon="-0.14886">
        <ele>1047.49</ele>
        <time>2013-11-24T08:37:36Z</time>
      </trkpt>
      <trkpt lat="42.96641" lon="-0.14861">
        <ele>1049.42</ele>
        <time>2013-11-24T08:38:06Z</time>
      </trkpt>
      <trkpt lat="42.96651" lon="-0.14833">
        <ele>1051.34</ele>
        <time>2013-11-24T08:38:36Z</time>
      </trkpt>
      <trkpt lat="42.96659" lon="-0.14805">
        <ele>1054.22</ele>
        <time>2013-11-24T08:39:06Z</time>
      </trkpt>
      <trkpt lat="42.96668" lon="-0.14778">
        <ele>1053.74</ele>
        <time>2013-11-24T08:39:36Z</time>
      </trkpt>
      <trkpt lat="42.96675" lon="-0.14751">
        <ele>1055.67</ele>
        <time>2013-11-24T08:40:06Z</time>
      </trkpt>
      <trkpt lat="42.96683" lon="-0.14724">
        <ele>1056.15</ele>
        <time>2013-11-24T08:40:36Z</time>
      </trkpt>
      <trkpt lat="42.96695" lon="-0.14696">
        <ele>1061.43</ele>
        <time>2013-11-24T08:41:06Z</time>
      </trkpt>
      <trkpt lat="42.96706" lon="-0.14669">
        <ele>1064.8</ele>
        <time>2013-11-24T08:41:36Z</time>
      </trkpt>
      <trkpt lat="42.96715" lon="-0.14642">
        <ele>1063.84</ele>
        <time>2013-11-24T08:42:06Z</time>
      </trkpt>
      <trkpt lat="42.96733" lon="-0.1461">
        <ele>1068.16</ele>
        <time>2013-11-24T08:42:36Z</time>
      </trkpt>
      <trkpt lat="42.96746" lon="-0.14579">
        <ele>1065.76</ele>
        <time>2013-11-24T08:43:06Z</time>
      </trkpt>
      <trkpt lat="42.96756" lon="-0.14544">
        <ele>1065.76</ele>
        <time>2013-11-24T08:43:36Z</time>
      </trkpt>
      <trkpt lat="42.96768" lon="-0.14509">
        <ele>1072.01</ele>
        <time>2013-11-24T08:44:06Z</time>
      </trkpt>
      <trkpt lat="42.96782" lon="-0.14477">
        <ele>1074.41</ele>
        <time>2013-11-24T08:44:36Z</time>
      </trkpt>
      <trkpt lat="42.96792" lon="-0.1444">
        <ele>1072.97</ele>
        <time>2013-11-24T08:45:06Z</time>
      </trkpt>
      <trkpt lat="42.96796" lon="-0.14397">
        <ele>1070.08</ele>
        <time>2013-11-24T08:45:36Z</time>
      </trkpt>
      <trkpt lat="42.96815" lon="-0.14365">
        <ele>1073.93</ele>
        <time>2013-11-24T08:46:06Z</time>
      </trkpt>
      <trkpt lat="42.96841" lon="-0.14356">
        <ele>1078.26</ele>
        <time>2013-11-24T08:46:36Z</time>
      </trkpt>
      <trkpt lat="42.9687" lon="-0.14337">
        <ele>1082.58</ele>
        <time>2013-11-24T08:47:06Z</time>
      </trkpt>
      <trkpt lat="42.96886" lon="-0.14311">
        <ele>1083.06</ele>
        <time>2013-11-24T08:47:36Z</time>
      </trkpt>
      <trkpt lat="42.96894" lon="-0.14301">
        <ele>1086.43</ele>
        <time>2013-11-24T08:48:06Z</time>
      </trkpt>
      <trkpt lat="42.96903" lon="-0.14294">
        <ele>1087.39</ele>
        <time>2013-11-24T08:48:36Z</time>
      </trkpt>
      <trkpt lat="42.96913" lon="-0.14302">
        <ele>1078.74</ele>
        <time>2013-11-24T08:49:06Z</time>
      </trkpt>
      <trkpt lat="42.96917" lon="-0.14303">
        <ele>1079.22</ele>
        <time>2013-11-24T08:49:36Z</time>
      </trkpt>
      <trkpt lat="42.96917" lon="-0.14295">
        <ele>1077.29</ele>
        <time>2013-11-24T08:50:06Z</time>
      </trkpt>
      <trkpt lat="42.96911" lon="-0.14289">
        <ele>1074.41</ele>
        <time>2013-11-24T08:50:36Z</time>
      </trkpt>
      <trkpt lat="42.96906" lon="-0.14296">
        <ele>1081.14</ele>
        <time>2013-11-24T08:51:06Z</time>
      </trkpt>
      <trkpt lat="42.96907" lon="-0.14291">
        <ele>1079.22</ele>
        <time>2013-11-24T08:51:36Z</time>
      </trkpt>
      <trkpt lat="42.96932" lon="-0.1427">
        <ele>1088.35</ele>
        <time>2013-11-24T08:52:06Z</time>
      </trkpt>
      <trkpt lat="42.96961" lon="-0.14262">
        <ele>1091.71</ele>
        <time>2013-11-24T08:52:36Z</time>
      </trkpt>
      <trkpt lat="42.96992" lon="-0.14267">
        <ele>1097</ele>
        <time>2013-11-24T08:53:06Z</time>
      </trkpt>
      <trkpt lat="42.97022" lon="-0.14267">
        <ele>1101.81</ele>
        <time>2013-11-24T08:53:36Z</time>
      </trkpt>
      <trkpt lat="42.97053" lon="-0.14268">
        <ele>1102.29</ele>
        <time>2013-11-24T08:54:06Z</time>
      </trkpt>
      <trkpt lat="42.97085" lon="-0.14265">
        <ele>1104.69</ele>
        <time>2013-11-24T08:54:36Z</time>
      </trkpt>
      <trkpt lat="42.97116" lon="-0.14261">
        <ele>1102.77</ele>
        <time>2013-11-24T08:55:06Z</time>
      </trkpt>
      <trkpt lat="42.97127" lon="-0.14255">
        <ele>1106.61</ele>
        <time>2013-11-24T08:55:36Z</time>
      </trkpt>
      <trkpt lat="42.97126" lon="-0.14256">
        <ele>1106.61</ele>
        <time>2013-11-24T08:56:06Z</time>
      </trkpt>
      <trkpt lat="42.97127" lon="-0.14257">
        <ele>1105.65</ele>
        <time>2013-11-24T08:56:36Z</time>
      </trkpt>
      <trkpt lat="42.97128" lon="-0.14256">
        <ele>1103.25</ele>
        <time>2013-11-24T08:57:06Z</time>
      </trkpt>
      <trkpt lat="42.97133" lon="-0.14252">
        <ele>1104.69</ele>
        <time>2013-11-24T08:57:36Z</time>
      </trkpt>
      <trkpt lat="42.97134" lon="-0.14255">
        <ele>1105.65</ele>
        <time>2013-11-24T08:58:06Z</time>
      </trkpt>
      <trkpt lat="42.97137" lon="-0.14249">
        <ele>1109.98</ele>
        <time>2013-11-24T08:58:36Z</time>
      </trkpt>
      <trkpt lat="42.97134" lon="-0.14251">
        <ele>1109.5</ele>
        <time>2013-11-24T08:59:06Z</time>
      </trkpt>
      <trkpt lat="42.97131" lon="-0.14251">
        <ele>1110.46</ele>
        <time>2013-11-24T08:59:36Z</time>
      </trkpt>
      <trkpt lat="42.97113" lon="-0.14252">
        <ele>1104.69</ele>
        <time>2013-11-24T09:00:06Z</time>
      </trkpt>
      <trkpt lat="42.97087" lon="-0.14245">
        <ele>1103.25</ele>
        <time>2013-11-24T09:00:36Z</time>
      </trkpt>
      <trkpt lat="42.97064" lon="-0.14235">
        <ele>1106.61</ele>
        <time>2013-11-24T09:01:06Z</time>
      </trkpt>
      <trkpt lat="42.97046" lon="-0.14222">
        <ele>1109.5</ele>
        <time>2013-11-24T09:01:36Z</time>
      </trkpt>
      <trkpt lat="42.97024" lon="-0.14212">
        <ele>1114.79</ele>
        <time>2013-11-24T09:02:06Z</time>
      </trkpt>
      <trkpt lat="42.97005" lon="-0.14204">
        <ele>1119.59</ele>
        <time>2013-11-24T09:02:36Z</time>
      </trkpt>
      <trkpt lat="42.96984" lon="-0.14192">
        <ele>1118.63</ele>
        <time>2013-11-24T09:03:06Z</time>
      </trkpt>
      <trkpt lat="42.96984" lon="-0.14189">
        <ele>1122.48</ele>
        <time>2013-11-24T09:03:36Z</time>
      </trkpt>
      <trkpt lat="42.96981" lon="-0.1419">
        <ele>1119.59</ele>
        <time>2013-11-24T09:04:06Z</time>
      </trkpt>
      <trkpt lat="42.96978" lon="-0.14184">
        <ele>1124.88</ele>
        <time>2013-11-24T09:04:36Z</time>
      </trkpt>
      <trkpt lat="42.96956" lon="-0.14183">
        <ele>1125.36</ele>
        <time>2013-11-24T09:05:06Z</time>
      </trkpt>
      <trkpt lat="42.9694" lon="-0.14176">
        <ele>1126.32</ele>
        <time>2013-11-24T09:05:36Z</time>
      </trkpt>
      <trkpt lat="42.96921" lon="-0.14168">
        <ele>1129.69</ele>
        <time>2013-11-24T09:06:06Z</time>
      </trkpt>
      <trkpt lat="42.96902" lon="-0.14152">
        <ele>1133.53</ele>
        <time>2013-11-24T09:06:36Z</time>
      </trkpt>
      <trkpt lat="42.96881" lon="-0.14137">
        <ele>1138.34</ele>
        <time>2013-11-24T09:07:06Z</time>
      </trkpt>
      <trkpt lat="42.96864" lon="-0.14119">
        <ele>1143.14</ele>
        <time>2013-11-24T09:07:36Z</time>
      </trkpt>
      <trkpt lat="42.9687" lon="-0.14104">
        <ele>1146.51</ele>
        <time>2013-11-24T09:08:06Z</time>
      </trkpt>
      <trkpt lat="42.96877" lon="-0.14091">
        <ele>1153.72</ele>
        <time>2013-11-24T09:08:36Z</time>
      </trkpt>
      <trkpt lat="42.9689" lon="-0.1408">
        <ele>1158.05</ele>
        <time>2013-11-24T09:09:06Z</time>
      </trkpt>
      <trkpt lat="42.96894" lon="-0.14069">
        <ele>1162.85</ele>
        <time>2013-11-24T09:09:36Z</time>
      </trkpt>
      <trkpt lat="42.96897" lon="-0.14069">
        <ele>1165.26</ele>
        <time>2013-11-24T09:10:06Z</time>
      </trkpt>
      <trkpt lat="42.96903" lon="-0.14066">
        <ele>1168.14</ele>
        <time>2013-11-24T09:10:36Z</time>
      </trkpt>
      <trkpt lat="42.96905" lon="-0.14073">
        <ele>1169.1</ele>
        <time>2013-11-24T09:11:06Z</time>
      </trkpt>
      <trkpt lat="42.96901" lon="-0.14063">
        <ele>1168.14</ele>
        <time>2013-11-24T09:11:36Z</time>
      </trkpt>
      <trkpt lat="42.96898" lon="-0.14063">
        <ele>1162.37</ele>
        <time>2013-11-24T09:12:06Z</time>
      </trkpt>
      <trkpt lat="42.96888" lon="-0.14074">
        <ele>1164.29</ele>
        <time>2013-11-24T09:12:36Z</time>
      </trkpt>
      <trkpt lat="42.96891" lon="-0.14074">
        <ele>1166.22</ele>
        <time>2013-11-24T09:13:06Z</time>
      </trkpt>
      <trkpt lat="42.96883" lon="-0.14078">
        <ele>1163.81</ele>
        <time>2013-11-24T09:13:36Z</time>
      </trkpt>
      <trkpt lat="42.96882" lon="-0.14081">
        <ele>1167.18</ele>
        <time>2013-11-24T09:14:06Z</time>
      </trkpt>
      <trkpt lat="42.96879" lon="-0.14077">
        <ele>1162.85</ele>
        <time>2013-11-24T09:14:36Z</time>
      </trkpt>
      <trkpt lat="42.9688" lon="-0.14071">
        <ele>1164.29</ele>
        <time>2013-11-24T09:15:06Z</time>
      </trkpt>
      <trkpt lat="42.96881" lon="-0.14069">
        <ele>1165.74</ele>
        <time>2013-11-24T09:15:36Z</time>
      </trkpt>
      <trkpt lat="42.96884" lon="-0.14061">
        <ele>1166.7</ele>
        <time>2013-11-24T09:16:06Z</time>
      </trkpt>
      <trkpt lat="42.96885" lon="-0.1406">
        <ele>1171.5</ele>
        <time>2013-11-24T09:16:36Z</time>
      </trkpt>
      <trkpt lat="42.96888" lon="-0.14057">
        <ele>1174.39</ele>
        <time>2013-11-24T09:17:06Z</time>
      </trkpt>
      <trkpt lat="42.96886" lon="-0.14058">
        <ele>1178.23</ele>
        <time>2013-11-24T09:17:36Z</time>
      </trkpt>
      <trkpt lat="42.96885" lon="-0.14057">
        <ele>1177.27</ele>
        <time>2013-11-24T09:18:06Z</time>
      </trkpt>
      <trkpt lat="42.96892" lon="-0.14055">
        <ele>1180.16</ele>
        <time>2013-11-24T09:18:36Z</time>
      </trkpt>
      <trkpt lat="42.96919" lon="-0.14053">
        <ele>1180.16</ele>
        <time>2013-11-24T09:19:06Z</time>
      </trkpt>
      <trkpt lat="42.96944" lon="-0.14054">
        <ele>1180.64</ele>
        <time>2013-11-24T09:19:36Z</time>
      </trkpt>
      <trkpt lat="42.96969" lon="-0.14058">
        <ele>1183.52</ele>
        <time>2013-11-24T09:20:06Z</time>
      </trkpt>
      <trkpt lat="42.9699" lon="-0.14053">
        <ele>1182.08</ele>
        <time>2013-11-24T09:20:36Z</time>
      </trkpt>
      <trkpt lat="42.97011" lon="-0.14045">
        <ele>1185.92</ele>
        <time>2013-11-24T09:21:06Z</time>
      </trkpt>
      <trkpt lat="42.97031" lon="-0.14037">
        <ele>1182.08</ele>
        <time>2013-11-24T09:21:36Z</time>
      </trkpt>
      <trkpt lat="42.97051" lon="-0.14033">
        <ele>1181.12</ele>
        <time>2013-11-24T09:22:06Z</time>
      </trkpt>
      <trkpt lat="42.97073" lon="-0.1402">
        <ele>1183.52</ele>
        <time>2013-11-24T09:22:36Z</time>
      </trkpt>
      <trkpt lat="42.97095" lon="-0.14005">
        <ele>1185.92</ele>
        <time>2013-11-24T09:23:06Z</time>
      </trkpt>
      <trkpt lat="42.97091" lon="-0.14001">
        <ele>1186.88</ele>
        <time>2013-11-24T09:23:36Z</time>
      </trkpt>
      <trkpt lat="42.97066" lon="-0.13997">
        <ele>1183.52</ele>
        <time>2013-11-24T09:24:06Z</time>
      </trkpt>
      <trkpt lat="42.97041" lon="-0.13997">
        <ele>1184</ele>
        <time>2013-11-24T09:24:36Z</time>
      </trkpt>
      <trkpt lat="42.97016" lon="-0.13992">
        <ele>1183.04</ele>
        <time>2013-11-24T09:25:06Z</time>
      </trkpt>
      <trkpt lat="42.9699" lon="-0.13991">
        <ele>1184</ele>
        <time>2013-11-24T09:25:36Z</time>
      </trkpt>
      <trkpt lat="42.96962" lon="-0.13989">
        <ele>1188.81</ele>
        <time>2013-11-24T09:26:06Z</time>
      </trkpt>
      <trkpt lat="42.96935" lon="-0.13985">
        <ele>1191.69</ele>
        <time>2013-11-24T09:26:36Z</time>
      </trkpt>
      <trkpt lat="42.96908" lon="-0.13973">
        <ele>1190.73</ele>
        <time>2013-11-24T09:27:06Z</time>
      </trkpt>
      <trkpt lat="42.96882" lon="-0.13963">
        <ele>1191.69</ele>
        <time>2013-11-24T09:27:36Z</time>
      </trkpt>
      <trkpt lat="42.96854" lon="-0.13963">
        <ele>1195.06</ele>
        <time>2013-11-24T09:28:06Z</time>
      </trkpt>
      <trkpt lat="42.96826" lon="-0.13966">
        <ele>1197.46</ele>
        <time>2013-11-24T09:28:36Z</time>
      </trkpt>
      <trkpt lat="42.96799" lon="-0.1397">
        <ele>1199.38</ele>
        <time>2013-11-24T09:29:06Z</time>
      </trkpt>
      <trkpt lat="42.9677" lon="-0.13973">
        <ele>1202.27</ele>
        <time>2013-11-24T09:29:36Z</time>
      </trkpt>
      <trkpt lat="42.96747" lon="-0.13986">
        <ele>1207.07</ele>
        <time>2013-11-24T09:30:06Z</time>
      </trkpt>
      <trkpt lat="42.96725" lon="-0.14014">
        <ele>1215.72</ele>
        <time>2013-11-24T09:30:36Z</time>
      </trkpt>
      <trkpt lat="42.96707" lon="-0.14036">
        <ele>1219.09</ele>
        <time>2013-11-24T09:31:06Z</time>
      </trkpt>
      <trkpt lat="42.96686" lon="-0.14061">
        <ele>1223.42</ele>
        <time>2013-11-24T09:31:36Z</time>
      </trkpt>
      <trkpt lat="42.9666" lon="-0.14074">
        <ele>1223.9</ele>
        <time>2013-11-24T09:32:06Z</time>
      </trkpt>
      <trkpt lat="42.9664" lon="-0.14084">
        <ele>1228.7</ele>
        <time>2013-11-24T09:32:36Z</time>
      </trkpt>
      <trkpt lat="42.96616" lon="-0.14097">
        <ele>1229.66</ele>
        <time>2013-11-24T09:33:06Z</time>
      </trkpt>
      <trkpt lat="42.96599" lon="-0.14114">
        <ele>1237.35</ele>
        <time>2013-11-24T09:33:36Z</time>
      </trkpt>
      <trkpt lat="42.9658" lon="-0.14133">
        <ele>1238.32</ele>
        <time>2013-11-24T09:34:06Z</time>
      </trkpt>
      <trkpt lat="42.96561" lon="-0.14156">
        <ele>1238.32</ele>
        <time>2013-11-24T09:34:36Z</time>
      </trkpt>
      <trkpt lat="42.96556" lon="-0.14191">
        <ele>1243.6</ele>
        <time>2013-11-24T09:35:06Z</time>
      </trkpt>
      <trkpt lat="42.96548" lon="-0.14224">
        <ele>1246.49</ele>
        <time>2013-11-24T09:35:36Z</time>
      </trkpt>
      <trkpt lat="42.9653" lon="-0.14258">
        <ele>1247.45</ele>
        <time>2013-11-24T09:36:06Z</time>
      </trkpt>
      <trkpt lat="42.96517" lon="-0.14291">
        <ele>1249.85</ele>
        <time>2013-11-24T09:36:36Z</time>
      </trkpt>
      <trkpt lat="42.96514" lon="-0.14325">
        <ele>1253.7</ele>
        <time>2013-11-24T09:37:06Z</time>
      </trkpt>
      <trkpt lat="42.96514" lon="-0.14361">
        <ele>1258.02</ele>
        <time>2013-11-24T09:37:36Z</time>
      </trkpt>
      <trkpt lat="42.96505" lon="-0.1439">
        <ele>1262.35</ele>
        <time>2013-11-24T09:38:06Z</time>
      </trkpt>
      <trkpt lat="42.96487" lon="-0.14418">
        <ele>1266.67</ele>
        <time>2013-11-24T09:38:36Z</time>
      </trkpt>
      <trkpt lat="42.96468" lon="-0.14448">
        <ele>1268.12</ele>
        <time>2013-11-24T09:39:06Z</time>
      </trkpt>
      <trkpt lat="42.96448" lon="-0.14445">
        <ele>1268.12</ele>
        <time>2013-11-24T09:39:36Z</time>
      </trkpt>
      <trkpt lat="42.96465" lon="-0.14409">
        <ele>1268.6</ele>
        <time>2013-11-24T09:40:06Z</time>
      </trkpt>
      <trkpt lat="42.96477" lon="-0.14374">
        <ele>1271.96</ele>
        <time>2013-11-24T09:40:36Z</time>
      </trkpt>
      <trkpt lat="42.96476" lon="-0.14339">
        <ele>1275.33</ele>
        <time>2013-11-24T09:41:06Z</time>
      </trkpt>
      <trkpt lat="42.96477" lon="-0.14303">
        <ele>1278.69</ele>
        <time>2013-11-24T09:41:36Z</time>
      </trkpt>
      <trkpt lat="42.96474" lon="-0.14266">
        <ele>1280.61</ele>
        <time>2013-11-24T09:42:06Z</time>
      </trkpt>
      <trkpt lat="42.9647" lon="-0.14232">
        <ele>1285.9</ele>
        <time>2013-11-24T09:42:36Z</time>
      </trkpt>
      <trkpt lat="42.96466" lon="-0.14195">
        <ele>1290.23</ele>
        <time>2013-11-24T09:43:06Z</time>
      </trkpt>
      <trkpt lat="42.96474" lon="-0.14159">
        <ele>1288.3</ele>
        <time>2013-11-24T09:43:36Z</time>
      </trkpt>
      <trkpt lat="42.96482" lon="-0.14127">
        <ele>1289.75</ele>
        <time>2013-11-24T09:44:06Z</time>
      </trkpt>
      <trkpt lat="42.96486" lon="-0.14116">
        <ele>1294.07</ele>
        <time>2013-11-24T09:44:36Z</time>
      </trkpt>
      <trkpt lat="42.96485" lon="-0.14115">
        <ele>1295.99</ele>
        <time>2013-11-24T09:45:06Z</time>
      </trkpt>
      <trkpt lat="42.96486" lon="-0.14115">
        <ele>1296.48</ele>
        <time>2013-11-24T09:45:36Z</time>
      </trkpt>
      <trkpt lat="42.96489" lon="-0.14113">
        <ele>1296.48</ele>
        <time>2013-11-24T09:46:06Z</time>
      </trkpt>
      <trkpt lat="42.96489" lon="-0.14114">
        <ele>1295.51</ele>
        <time>2013-11-24T09:46:36Z</time>
      </trkpt>
      <trkpt lat="42.96486" lon="-0.1411">
        <ele>1294.55</ele>
        <time>2013-11-24T09:47:06Z</time>
      </trkpt>
      <trkpt lat="42.96485" lon="-0.14113">
        <ele>1296.48</ele>
        <time>2013-11-24T09:47:36Z</time>
      </trkpt>
      <trkpt lat="42.96484" lon="-0.14119">
        <ele>1293.59</ele>
        <time>2013-11-24T09:48:06Z</time>
      </trkpt>
      <trkpt lat="42.96485" lon="-0.14121">
        <ele>1290.71</ele>
        <time>2013-11-24T09:48:36Z</time>
      </trkpt>
      <trkpt lat="42.96484" lon="-0.14123">
        <ele>1291.19</ele>
        <time>2013-11-24T09:49:06Z</time>
      </trkpt>
      <trkpt lat="42.96485" lon="-0.14123">
        <ele>1290.71</ele>
        <time>2013-11-24T09:49:36Z</time>
      </trkpt>
      <trkpt lat="42.96487" lon="-0.14122">
        <ele>1291.67</ele>
        <time>2013-11-24T09:50:06Z</time>
      </trkpt>
      <trkpt lat="42.96486" lon="-0.14124">
        <ele>1292.63</ele>
        <time>2013-11-24T09:50:36Z</time>
      </trkpt>
      <trkpt lat="42.96485" lon="-0.14125">
        <ele>1292.15</ele>
        <time>2013-11-24T09:51:06Z</time>
      </trkpt>
      <trkpt lat="42.96484" lon="-0.14117">
        <ele>1295.03</ele>
        <time>2013-11-24T09:51:36Z</time>
      </trkpt>
      <trkpt lat="42.9648" lon="-0.14118">
        <ele>1298.88</ele>
        <time>2013-11-24T09:52:06Z</time>
      </trkpt>
      <trkpt lat="42.9648" lon="-0.14119">
        <ele>1302.72</ele>
        <time>2013-11-24T09:52:36Z</time>
      </trkpt>
      <trkpt lat="42.96478" lon="-0.1412">
        <ele>1300.8</ele>
        <time>2013-11-24T09:53:06Z</time>
      </trkpt>
      <trkpt lat="42.96488" lon="-0.141">
        <ele>1297.92</ele>
        <time>2013-11-24T09:53:36Z</time>
      </trkpt>
      <trkpt lat="42.96497" lon="-0.14066">
        <ele>1296.96</ele>
        <time>2013-11-24T09:54:06Z</time>
      </trkpt>
      <trkpt lat="42.96505" lon="-0.14058">
        <ele>1297.92</ele>
        <time>2013-11-24T09:54:36Z</time>
      </trkpt>
      <trkpt lat="42.9652" lon="-0.14035">
        <ele>1300.8</ele>
        <time>2013-11-24T09:55:06Z</time>
      </trkpt>
      <trkpt lat="42.96534" lon="-0.14014">
        <ele>1299.84</ele>
        <time>2013-11-24T09:55:36Z</time>
      </trkpt>
      <trkpt lat="42.96535" lon="-0.14014">
        <ele>1301.76</ele>
        <time>2013-11-24T09:56:06Z</time>
      </trkpt>
      <trkpt lat="42.96536" lon="-0.14011">
        <ele>1302.72</ele>
        <time>2013-11-24T09:56:36Z</time>
      </trkpt>
      <trkpt lat="42.96544" lon="-0.13989">
        <ele>1300.8</ele>
        <time>2013-11-24T09:57:06Z</time>
      </trkpt>
      <trkpt lat="42.96561" lon="-0.1395">
        <ele>1303.69</ele>
        <time>2013-11-24T09:57:36Z</time>
      </trkpt>
      <trkpt lat="42.96578" lon="-0.1391">
        <ele>1306.57</ele>
        <time>2013-11-24T09:58:06Z</time>
      </trkpt>
      <trkpt lat="42.96595" lon="-0.13872">
        <ele>1308.97</ele>
        <time>2013-11-24T09:58:36Z</time>
      </trkpt>
      <trkpt lat="42.96615" lon="-0.13835">
        <ele>1312.34</ele>
        <time>2013-11-24T09:59:06Z</time>
      </trkpt>
      <trkpt lat="42.96639" lon="-0.13799">
        <ele>1314.74</ele>
        <time>2013-11-24T09:59:36Z</time>
      </trkpt>
      <trkpt lat="42.9666" lon="-0.13756">
        <ele>1315.7</ele>
        <time>2013-11-24T10:00:06Z</time>
      </trkpt>
      <trkpt lat="42.96664" lon="-0.13734">
        <ele>1319.07</ele>
        <time>2013-11-24T10:00:36Z</time>
      </trkpt>
      <trkpt lat="42.96654" lon="-0.13732">
        <ele>1323.87</ele>
        <time>2013-11-24T10:01:06Z</time>
      </trkpt>
      <trkpt lat="42.96644" lon="-0.13753">
        <ele>1328.68</ele>
        <time>2013-11-24T10:01:36Z</time>
      </trkpt>
      <trkpt lat="42.96634" lon="-0.13765">
        <ele>1331.56</ele>
        <time>2013-11-24T10:02:06Z</time>
      </trkpt>
      <trkpt lat="42.96624" lon="-0.13778">
        <ele>1334.45</ele>
        <time>2013-11-24T10:02:36Z</time>
      </trkpt>
      <trkpt lat="42.96612" lon="-0.13794">
        <ele>1337.81</ele>
        <time>2013-11-24T10:03:06Z</time>
      </trkpt>
      <trkpt lat="42.96598" lon="-0.13804">
        <ele>1338.29</ele>
        <time>2013-11-24T10:03:36Z</time>
      </trkpt>
      <trkpt lat="42.9658" lon="-0.13822">
        <ele>1343.1</ele>
        <time>2013-11-24T10:04:06Z</time>
      </trkpt>
      <trkpt lat="42.96562" lon="-0.13834">
        <ele>1345.5</ele>
        <time>2013-11-24T10:04:36Z</time>
      </trkpt>
      <trkpt lat="42.9656" lon="-0.13823">
        <ele>1348.87</ele>
        <time>2013-11-24T10:05:06Z</time>
      </trkpt>
      <trkpt lat="42.96569" lon="-0.13803">
        <ele>1346.94</ele>
        <time>2013-11-24T10:05:36Z</time>
      </trkpt>
      <trkpt lat="42.96578" lon="-0.13766">
        <ele>1345.98</ele>
        <time>2013-11-24T10:06:06Z</time>
      </trkpt>
      <trkpt lat="42.96585" lon="-0.13734">
        <ele>1347.43</ele>
        <time>2013-11-24T10:06:36Z</time>
      </trkpt>
      <trkpt lat="42.96591" lon="-0.13721">
        <ele>1350.31</ele>
        <time>2013-11-24T10:07:06Z</time>
      </trkpt>
      <trkpt lat="42.96587" lon="-0.13713">
        <ele>1353.67</ele>
        <time>2013-11-24T10:07:36Z</time>
      </trkpt>
      <trkpt lat="42.96592" lon="-0.13707">
        <ele>1356.08</ele>
        <time>2013-11-24T10:08:06Z</time>
      </trkpt>
      <trkpt lat="42.96584" lon="-0.13696">
        <ele>1357.52</ele>
        <time>2013-11-24T10:08:36Z</time>
      </trkpt>
      <trkpt lat="42.9657" lon="-0.13662">
        <ele>1354.15</ele>
        <time>2013-11-24T10:09:06Z</time>
      </trkpt>
      <trkpt lat="42.96557" lon="-0.13631">
        <ele>1345.98</ele>
        <time>2013-11-24T10:09:36Z</time>
      </trkpt>
      <trkpt lat="42.96548" lon="-0.13597">
        <ele>1348.39</ele>
        <time>2013-11-24T10:10:06Z</time>
      </trkpt>
      <trkpt lat="42.96524" lon="-0.13583">
        <ele>1345.98</ele>
        <time>2013-11-24T10:10:36Z</time>
      </trkpt>
      <trkpt lat="42.965" lon="-0.13594">
        <ele>1345.02</ele>
        <time>2013-11-24T10:11:06Z</time>
      </trkpt>
      <trkpt lat="42.96474" lon="-0.13598">
        <ele>1351.75</ele>
        <time>2013-11-24T10:11:36Z</time>
      </trkpt>
      <trkpt lat="42.96451" lon="-0.13588">
        <ele>1361.36</ele>
        <time>2013-11-24T10:12:06Z</time>
      </trkpt>
      <trkpt lat="42.96434" lon="-0.13564">
        <ele>1370.98</ele>
        <time>2013-11-24T10:12:36Z</time>
      </trkpt>
      <trkpt lat="42.96424" lon="-0.13548">
        <ele>1371.94</ele>
        <time>2013-11-24T10:13:06Z</time>
      </trkpt>
      <trkpt lat="42.96418" lon="-0.13538">
        <ele>1371.46</ele>
        <time>2013-11-24T10:13:36Z</time>
      </trkpt>
      <trkpt lat="42.96404" lon="-0.13496">
        <ele>1365.69</ele>
        <time>2013-11-24T10:14:06Z</time>
      </trkpt>
      <trkpt lat="42.96423" lon="-0.13471">
        <ele>1354.63</ele>
        <time>2013-11-24T10:14:36Z</time>
      </trkpt>
      <trkpt lat="42.96439" lon="-0.13446">
        <ele>1355.12</ele>
        <time>2013-11-24T10:15:06Z</time>
      </trkpt>
      <trkpt lat="42.96456" lon="-0.13424">
        <ele>1354.15</ele>
        <time>2013-11-24T10:15:36Z</time>
      </trkpt>
      <trkpt lat="42.96478" lon="-0.13405">
        <ele>1357.52</ele>
        <time>2013-11-24T10:16:06Z</time>
      </trkpt>
      <trkpt lat="42.96484" lon="-0.13402">
        <ele>1360.4</ele>
        <time>2013-11-24T10:16:36Z</time>
      </trkpt>
      <trkpt lat="42.96485" lon="-0.13403">
        <ele>1355.12</ele>
        <time>2013-11-24T10:17:06Z</time>
      </trkpt>
      <trkpt lat="42.96483" lon="-0.13402">
        <ele>1355.12</ele>
        <time>2013-11-24T10:17:36Z</time>
      </trkpt>
      <trkpt lat="42.96487" lon="-0.13397">
        <ele>1359.44</ele>
        <time>2013-11-24T10:18:06Z</time>
      </trkpt>
      <trkpt lat="42.96491" lon="-0.13388">
        <ele>1359.44</ele>
        <time>2013-11-24T10:18:36Z</time>
      </trkpt>
      <trkpt lat="42.96493" lon="-0.13383">
        <ele>1360.88</ele>
        <time>2013-11-24T10:19:06Z</time>
      </trkpt>
      <trkpt lat="42.96492" lon="-0.1338">
        <ele>1359.92</ele>
        <time>2013-11-24T10:19:36Z</time>
      </trkpt>
      <trkpt lat="42.96482" lon="-0.13382">
        <ele>1361.84</ele>
        <time>2013-11-24T10:20:06Z</time>
      </trkpt>
      <trkpt lat="42.96478" lon="-0.13364">
        <ele>1364.73</ele>
        <time>2013-11-24T10:20:36Z</time>
      </trkpt>
      <trkpt lat="42.96481" lon="-0.13351">
        <ele>1368.57</ele>
        <time>2013-11-24T10:21:06Z</time>
      </trkpt>
      <trkpt lat="42.96484" lon="-0.13344">
        <ele>1369.54</ele>
        <time>2013-11-24T10:21:36Z</time>
      </trkpt>
      <trkpt lat="42.96488" lon="-0.1334">
        <ele>1370.5</ele>
        <time>2013-11-24T10:22:06Z</time>
      </trkpt>
      <trkpt lat="42.96491" lon="-0.13329">
        <ele>1371.94</ele>
        <time>2013-11-24T10:22:36Z</time>
      </trkpt>
      <trkpt lat="42.96495" lon="-0.13312">
        <ele>1373.38</ele>
        <time>2013-11-24T10:23:06Z</time>
      </trkpt>
      <trkpt lat="42.96498" lon="-0.13295">
        <ele>1376.26</ele>
        <time>2013-11-24T10:23:36Z</time>
      </trkpt>
      <trkpt lat="42.96483" lon="-0.13299">
        <ele>1381.07</ele>
        <time>2013-11-24T10:24:06Z</time>
      </trkpt>
      <trkpt lat="42.96483" lon="-0.13278">
        <ele>1385.88</ele>
        <time>2013-11-24T10:24:36Z</time>
      </trkpt>
      <trkpt lat="42.96485" lon="-0.13257">
        <ele>1391.17</ele>
        <time>2013-11-24T10:25:06Z</time>
      </trkpt>
      <trkpt lat="42.96486" lon="-0.13232">
        <ele>1392.13</ele>
        <time>2013-11-24T10:25:36Z</time>
      </trkpt>
      <trkpt lat="42.96486" lon="-0.13224">
        <ele>1393.57</ele>
        <time>2013-11-24T10:26:06Z</time>
      </trkpt>
      <trkpt lat="42.96485" lon="-0.13221">
        <ele>1395.97</ele>
        <time>2013-11-24T10:26:36Z</time>
      </trkpt>
      <trkpt lat="42.96484" lon="-0.13211">
        <ele>1396.93</ele>
        <time>2013-11-24T10:27:06Z</time>
      </trkpt>
      <trkpt lat="42.96473" lon="-0.13187">
        <ele>1400.3</ele>
        <time>2013-11-24T10:27:36Z</time>
      </trkpt>
      <trkpt lat="42.96469" lon="-0.13161">
        <ele>1405.1</ele>
        <time>2013-11-24T10:28:06Z</time>
      </trkpt>
      <trkpt lat="42.96457" lon="-0.13164">
        <ele>1408.47</ele>
        <time>2013-11-24T10:28:36Z</time>
      </trkpt>
      <trkpt lat="42.96441" lon="-0.13169">
        <ele>1410.87</ele>
        <time>2013-11-24T10:29:06Z</time>
      </trkpt>
      <trkpt lat="42.96435" lon="-0.13155">
        <ele>1413.76</ele>
        <time>2013-11-24T10:29:36Z</time>
      </trkpt>
      <trkpt lat="42.96423" lon="-0.13162">
        <ele>1418.56</ele>
        <time>2013-11-24T10:30:06Z</time>
      </trkpt>
      <trkpt lat="42.96413" lon="-0.13137">
        <ele>1420.97</ele>
        <time>2013-11-24T10:30:36Z</time>
      </trkpt>
      <trkpt lat="42.96407" lon="-0.13135">
        <ele>1423.85</ele>
        <time>2013-11-24T10:31:06Z</time>
      </trkpt>
      <trkpt lat="42.96394" lon="-0.13152">
        <ele>1427.21</ele>
        <time>2013-11-24T10:31:36Z</time>
      </trkpt>
      <trkpt lat="42.96386" lon="-0.13136">
        <ele>1430.58</ele>
        <time>2013-11-24T10:32:06Z</time>
      </trkpt>
      <trkpt lat="42.96382" lon="-0.13144">
        <ele>1433.46</ele>
        <time>2013-11-24T10:32:36Z</time>
      </trkpt>
      <trkpt lat="42.96367" lon="-0.13157">
        <ele>1435.87</ele>
        <time>2013-11-24T10:33:06Z</time>
      </trkpt>
      <trkpt lat="42.96351" lon="-0.13169">
        <ele>1437.79</ele>
        <time>2013-11-24T10:33:36Z</time>
      </trkpt>
      <trkpt lat="42.96337" lon="-0.13182">
        <ele>1441.63</ele>
        <time>2013-11-24T10:34:06Z</time>
      </trkpt>
      <trkpt lat="42.96318" lon="-0.1318">
        <ele>1443.56</ele>
        <time>2013-11-24T10:34:36Z</time>
      </trkpt>
      <trkpt lat="42.96302" lon="-0.13181">
        <ele>1445</ele>
        <time>2013-11-24T10:35:06Z</time>
      </trkpt>
      <trkpt lat="42.9629" lon="-0.1318">
        <ele>1451.73</ele>
        <time>2013-11-24T10:35:36Z</time>
      </trkpt>
      <trkpt lat="42.96284" lon="-0.13179">
        <ele>1453.65</ele>
        <time>2013-11-24T10:36:06Z</time>
      </trkpt>
      <trkpt lat="42.96281" lon="-0.13181">
        <ele>1456.53</ele>
        <time>2013-11-24T10:36:36Z</time>
      </trkpt>
      <trkpt lat="42.96281" lon="-0.13177">
        <ele>1457.5</ele>
        <time>2013-11-24T10:37:06Z</time>
      </trkpt>
      <trkpt lat="42.96282" lon="-0.13176">
        <ele>1456.53</ele>
        <time>2013-11-24T10:37:36Z</time>
      </trkpt>
      <trkpt lat="42.96281" lon="-0.13173">
        <ele>1454.61</ele>
        <time>2013-11-24T10:38:06Z</time>
      </trkpt>
      <trkpt lat="42.9628" lon="-0.13172">
        <ele>1456.05</ele>
        <time>2013-11-24T10:38:36Z</time>
      </trkpt>
      <trkpt lat="42.96281" lon="-0.13177">
        <ele>1457.98</ele>
        <time>2013-11-24T10:39:06Z</time>
      </trkpt>
      <trkpt lat="42.96282" lon="-0.1318">
        <ele>1458.94</ele>
        <time>2013-11-24T10:39:36Z</time>
      </trkpt>
      <trkpt lat="42.96283" lon="-0.13177">
        <ele>1457.5</ele>
        <time>2013-11-24T10:40:06Z</time>
      </trkpt>
      <trkpt lat="42.96283" lon="-0.13179">
        <ele>1457.98</ele>
        <time>2013-11-24T10:40:36Z</time>
      </trkpt>
      <trkpt lat="42.96286" lon="-0.13177">
        <ele>1455.57</ele>
        <time>2013-11-24T10:41:06Z</time>
      </trkpt>
      <trkpt lat="42.96286" lon="-0.13178">
        <ele>1455.09</ele>
        <time>2013-11-24T10:41:36Z</time>
      </trkpt>
      <trkpt lat="42.96288" lon="-0.13177">
        <ele>1453.17</ele>
        <time>2013-11-24T10:42:06Z</time>
      </trkpt>
      <trkpt lat="42.96288" lon="-0.13176">
        <ele>1452.69</ele>
        <time>2013-11-24T10:42:36Z</time>
      </trkpt>
      <trkpt lat="42.96289" lon="-0.13178">
        <ele>1457.02</ele>
        <time>2013-11-24T10:43:06Z</time>
      </trkpt>
      <trkpt lat="42.96289" lon="-0.13179">
        <ele>1456.53</ele>
        <time>2013-11-24T10:43:36Z</time>
      </trkpt>
      <trkpt lat="42.96284" lon="-0.13179">
        <ele>1459.42</ele>
        <time>2013-11-24T10:44:06Z</time>
      </trkpt>
      <trkpt lat="42.96281" lon="-0.13178">
        <ele>1461.82</ele>
        <time>2013-11-24T10:44:36Z</time>
      </trkpt>
      <trkpt lat="42.96282" lon="-0.13179">
        <ele>1460.38</ele>
        <time>2013-11-24T10:45:06Z</time>
      </trkpt>
      <trkpt lat="42.96279" lon="-0.13179">
        <ele>1459.42</ele>
        <time>2013-11-24T10:45:36Z</time>
      </trkpt>
      <trkpt lat="42.96276" lon="-0.13173">
        <ele>1461.34</ele>
        <time>2013-11-24T10:46:06Z</time>
      </trkpt>
      <trkpt lat="42.9626" lon="-0.13161">
        <ele>1462.3</ele>
        <time>2013-11-24T10:46:36Z</time>
      </trkpt>
      <trkpt lat="42.96249" lon="-0.13154">
        <ele>1468.55</ele>
        <time>2013-11-24T10:47:06Z</time>
      </trkpt>
      <trkpt lat="42.96246" lon="-0.1315">
        <ele>1469.99</ele>
        <time>2013-11-24T10:47:36Z</time>
      </trkpt>
      <trkpt lat="42.96243" lon="-0.13142">
        <ele>1470.47</ele>
        <time>2013-11-24T10:48:06Z</time>
      </trkpt>
      <trkpt lat="42.96233" lon="-0.1312">
        <ele>1473.36</ele>
        <time>2013-11-24T10:48:36Z</time>
      </trkpt>
      <trkpt lat="42.96223" lon="-0.13107">
        <ele>1476.72</ele>
        <time>2013-11-24T10:49:06Z</time>
      </trkpt>
      <trkpt lat="42.96216" lon="-0.1309">
        <ele>1478.65</ele>
        <time>2013-11-24T10:49:36Z</time>
      </trkpt>
      <trkpt lat="42.96211" lon="-0.13097">
        <ele>1481.53</ele>
        <time>2013-11-24T10:50:06Z</time>
      </trkpt>
      <trkpt lat="42.96202" lon="-0.13083">
        <ele>1486.34</ele>
        <time>2013-11-24T10:50:36Z</time>
      </trkpt>
      <trkpt lat="42.96197" lon="-0.13074">
        <ele>1486.82</ele>
        <time>2013-11-24T10:51:06Z</time>
      </trkpt>
      <trkpt lat="42.96189" lon="-0.13075">
        <ele>1489.22</ele>
        <time>2013-11-24T10:51:36Z</time>
      </trkpt>
      <trkpt lat="42.96177" lon="-0.1306">
        <ele>1491.62</ele>
        <time>2013-11-24T10:52:06Z</time>
      </trkpt>
      <trkpt lat="42.9617" lon="-0.13046">
        <ele>1494.51</ele>
        <time>2013-11-24T10:52:36Z</time>
      </trkpt>
      <trkpt lat="42.96168" lon="-0.13043">
        <ele>1494.51</ele>
        <time>2013-11-24T10:53:06Z</time>
      </trkpt>
      <trkpt lat="42.96162" lon="-0.13046">
        <ele>1497.39</ele>
        <time>2013-11-24T10:53:36Z</time>
      </trkpt>
      <trkpt lat="42.96146" lon="-0.13039">
        <ele>1501.24</ele>
        <time>2013-11-24T10:54:06Z</time>
      </trkpt>
      <trkpt lat="42.96134" lon="-0.13042">
        <ele>1503.16</ele>
        <time>2013-11-24T10:54:36Z</time>
      </trkpt>
      <trkpt lat="42.96127" lon="-0.13047">
        <ele>1506.52</ele>
        <time>2013-11-24T10:55:06Z</time>
      </trkpt>
      <trkpt lat="42.9611" lon="-0.13046">
        <ele>1511.33</ele>
        <time>2013-11-24T10:55:36Z</time>
      </trkpt>
      <trkpt lat="42.96098" lon="-0.13033">
        <ele>1514.69</ele>
        <time>2013-11-24T10:56:06Z</time>
      </trkpt>
      <trkpt lat="42.96082" lon="-0.13032">
        <ele>1517.58</ele>
        <time>2013-11-24T10:56:36Z</time>
      </trkpt>
      <trkpt lat="42.96068" lon="-0.13018">
        <ele>1520.94</ele>
        <time>2013-11-24T10:57:06Z</time>
      </trkpt>
      <trkpt lat="42.96064" lon="-0.13014">
        <ele>1521.9</ele>
        <time>2013-11-24T10:57:36Z</time>
      </trkpt>
      <trkpt lat="42.96062" lon="-0.13008">
        <ele>1521.9</ele>
        <time>2013-11-24T10:58:06Z</time>
      </trkpt>
      <trkpt lat="42.96059" lon="-0.13008">
        <ele>1521.9</ele>
        <time>2013-11-24T10:58:36Z</time>
      </trkpt>
      <trkpt lat="42.96057" lon="-0.13009">
        <ele>1522.39</ele>
        <time>2013-11-24T10:59:06Z</time>
      </trkpt>
      <trkpt lat="42.96039" lon="-0.13002">
        <ele>1525.75</ele>
        <time>2013-11-24T10:59:36Z</time>
      </trkpt>
      <trkpt lat="42.96028" lon="-0.13009">
        <ele>1530.56</ele>
        <time>2013-11-24T11:00:06Z</time>
      </trkpt>
      <trkpt lat="42.96014" lon="-0.13001">
        <ele>1534.88</ele>
        <time>2013-11-24T11:00:36Z</time>
      </trkpt>
      <trkpt lat="42.96001" lon="-0.13015">
        <ele>1538.25</ele>
        <time>2013-11-24T11:01:06Z</time>
      </trkpt>
      <trkpt lat="42.95986" lon="-0.13014">
        <ele>1542.09</ele>
        <time>2013-11-24T11:01:36Z</time>
      </trkpt>
      <trkpt lat="42.95973" lon="-0.13014">
        <ele>1545.46</ele>
        <time>2013-11-24T11:02:06Z</time>
      </trkpt>
      <trkpt lat="42.95959" lon="-0.13014">
        <ele>1549.3</ele>
        <time>2013-11-24T11:02:36Z</time>
      </trkpt>
      <trkpt lat="42.95945" lon="-0.12995">
        <ele>1552.67</ele>
        <time>2013-11-24T11:03:06Z</time>
      </trkpt>
      <trkpt lat="42.95936" lon="-0.12985">
        <ele>1554.59</ele>
        <time>2013-11-24T11:03:36Z</time>
      </trkpt>
      <trkpt lat="42.95918" lon="-0.12991">
        <ele>1558.43</ele>
        <time>2013-11-24T11:04:06Z</time>
      </trkpt>
      <trkpt lat="42.95905" lon="-0.12993">
        <ele>1562.76</ele>
        <time>2013-11-24T11:04:36Z</time>
      </trkpt>
      <trkpt lat="42.95906" lon="-0.12995">
        <ele>1563.24</ele>
        <time>2013-11-24T11:05:06Z</time>
      </trkpt>
      <trkpt lat="42.95905" lon="-0.12993">
        <ele>1564.2</ele>
        <time>2013-11-24T11:05:36Z</time>
      </trkpt>
      <trkpt lat="42.95906" lon="-0.12993">
        <ele>1565.64</ele>
        <time>2013-11-24T11:06:06Z</time>
      </trkpt>
      <trkpt lat="42.95905" lon="-0.12991">
        <ele>1565.16</ele>
        <time>2013-11-24T11:06:36Z</time>
      </trkpt>
      <trkpt lat="42.95905" lon="-0.12993">
        <ele>1564.2</ele>
        <time>2013-11-24T11:07:06Z</time>
      </trkpt>
      <trkpt lat="42.95905" lon="-0.12992">
        <ele>1563.24</ele>
        <time>2013-11-24T11:07:36Z</time>
      </trkpt>
      <trkpt lat="42.95899" lon="-0.12992">
        <ele>1564.68</ele>
        <time>2013-11-24T11:08:06Z</time>
      </trkpt>
      <trkpt lat="42.9588" lon="-0.12988">
        <ele>1566.12</ele>
        <time>2013-11-24T11:08:36Z</time>
      </trkpt>
      <trkpt lat="42.95864" lon="-0.12977">
        <ele>1571.89</ele>
        <time>2013-11-24T11:09:06Z</time>
      </trkpt>
      <trkpt lat="42.95854" lon="-0.12957">
        <ele>1575.74</ele>
        <time>2013-11-24T11:09:36Z</time>
      </trkpt>
      <trkpt lat="42.95837" lon="-0.12952">
        <ele>1581.51</ele>
        <time>2013-11-24T11:10:06Z</time>
      </trkpt>
      <trkpt lat="42.95819" lon="-0.1294">
        <ele>1586.31</ele>
        <time>2013-11-24T11:10:36Z</time>
      </trkpt>
      <trkpt lat="42.95801" lon="-0.12928">
        <ele>1587.27</ele>
        <time>2013-11-24T11:11:06Z</time>
      </trkpt>
      <trkpt lat="42.95784" lon="-0.12933">
        <ele>1588.72</ele>
        <time>2013-11-24T11:11:36Z</time>
      </trkpt>
      <trkpt lat="42.95768" lon="-0.12934">
        <ele>1596.89</ele>
        <time>2013-11-24T11:12:06Z</time>
      </trkpt>
      <trkpt lat="42.95749" lon="-0.12939">
        <ele>1601.21</ele>
        <time>2013-11-24T11:12:36Z</time>
      </trkpt>
      <trkpt lat="42.95738" lon="-0.12921">
        <ele>1605.06</ele>
        <time>2013-11-24T11:13:06Z</time>
      </trkpt>
      <trkpt lat="42.95726" lon="-0.12907">
        <ele>1608.42</ele>
        <time>2013-11-24T11:13:36Z</time>
      </trkpt>
      <trkpt lat="42.95711" lon="-0.12895">
        <ele>1612.75</ele>
        <time>2013-11-24T11:14:06Z</time>
      </trkpt>
      <trkpt lat="42.95695" lon="-0.12888">
        <ele>1617.07</ele>
        <time>2013-11-24T11:14:36Z</time>
      </trkpt>
      <trkpt lat="42.95681" lon="-0.12901">
        <ele>1620.92</ele>
        <time>2013-11-24T11:15:06Z</time>
      </trkpt>
      <trkpt lat="42.95673" lon="-0.1292">
        <ele>1624.77</ele>
        <time>2013-11-24T11:15:36Z</time>
      </trkpt>
      <trkpt lat="42.95656" lon="-0.12919">
        <ele>1628.13</ele>
        <time>2013-11-24T11:16:06Z</time>
      </trkpt>
      <trkpt lat="42.9564" lon="-0.12916">
        <ele>1633.9</ele>
        <time>2013-11-24T11:16:36Z</time>
      </trkpt>
      <trkpt lat="42.95626" lon="-0.12925">
        <ele>1634.38</ele>
        <time>2013-11-24T11:17:06Z</time>
      </trkpt>
      <trkpt lat="42.95614" lon="-0.12943">
        <ele>1637.74</ele>
        <time>2013-11-24T11:17:36Z</time>
      </trkpt>
      <trkpt lat="42.95603" lon="-0.12956">
        <ele>1641.59</ele>
        <time>2013-11-24T11:18:06Z</time>
      </trkpt>
      <trkpt lat="42.9559" lon="-0.1297">
        <ele>1647.84</ele>
        <time>2013-11-24T11:18:36Z</time>
      </trkpt>
      <trkpt lat="42.95574" lon="-0.12975">
        <ele>1653.12</ele>
        <time>2013-11-24T11:19:06Z</time>
      </trkpt>
      <trkpt lat="42.95566" lon="-0.12993">
        <ele>1656.97</ele>
        <time>2013-11-24T11:19:36Z</time>
      </trkpt>
      <trkpt lat="42.95556" lon="-0.1301">
        <ele>1659.85</ele>
        <time>2013-11-24T11:20:06Z</time>
      </trkpt>
      <trkpt lat="42.9555" lon="-0.1303">
        <ele>1662.74</ele>
        <time>2013-11-24T11:20:36Z</time>
      </trkpt>
      <trkpt lat="42.95545" lon="-0.13048">
        <ele>1666.1</ele>
        <time>2013-11-24T11:21:06Z</time>
      </trkpt>
      <trkpt lat="42.95535" lon="-0.13059">
        <ele>1672.35</ele>
        <time>2013-11-24T11:21:36Z</time>
      </trkpt>
      <trkpt lat="42.95515" lon="-0.13052">
        <ele>1677.64</ele>
        <time>2013-11-24T11:22:06Z</time>
      </trkpt>
      <trkpt lat="42.95499" lon="-0.13054">
        <ele>1677.64</ele>
        <time>2013-11-24T11:22:36Z</time>
      </trkpt>
      <trkpt lat="42.95486" lon="-0.13065">
        <ele>1681.96</ele>
        <time>2013-11-24T11:23:06Z</time>
      </trkpt>
      <trkpt lat="42.95474" lon="-0.13076">
        <ele>1683.41</ele>
        <time>2013-11-24T11:23:36Z</time>
      </trkpt>
      <trkpt lat="42.95469" lon="-0.13097">
        <ele>1687.73</ele>
        <time>2013-11-24T11:24:06Z</time>
      </trkpt>
      <trkpt lat="42.95463" lon="-0.13113">
        <ele>1691.58</ele>
        <time>2013-11-24T11:24:36Z</time>
      </trkpt>
      <trkpt lat="42.9545" lon="-0.13134">
        <ele>1696.86</ele>
        <time>2013-11-24T11:25:06Z</time>
      </trkpt>
      <trkpt lat="42.95439" lon="-0.13149">
        <ele>1702.15</ele>
        <time>2013-11-24T11:25:36Z</time>
      </trkpt>
      <trkpt lat="42.95429" lon="-0.13162">
        <ele>1705.04</ele>
        <time>2013-11-24T11:26:06Z</time>
      </trkpt>
      <trkpt lat="42.95416" lon="-0.1318">
        <ele>1709.84</ele>
        <time>2013-11-24T11:26:36Z</time>
      </trkpt>
      <trkpt lat="42.95404" lon="-0.13196">
        <ele>1711.76</ele>
        <time>2013-11-24T11:27:06Z</time>
      </trkpt>
      <trkpt lat="42.95389" lon="-0.13218">
        <ele>1714.65</ele>
        <time>2013-11-24T11:27:36Z</time>
      </trkpt>
      <trkpt lat="42.9538" lon="-0.13232">
        <ele>1716.57</ele>
        <time>2013-11-24T11:28:06Z</time>
      </trkpt>
      <trkpt lat="42.95373" lon="-0.13241">
        <ele>1718.01</ele>
        <time>2013-11-24T11:28:36Z</time>
      </trkpt>
      <trkpt lat="42.95372" lon="-0.13239">
        <ele>1718.97</ele>
        <time>2013-11-24T11:29:06Z</time>
      </trkpt>
      <trkpt lat="42.95372" lon="-0.13239">
        <ele>1718.49</ele>
        <time>2013-11-24T11:29:36Z</time>
      </trkpt>
      <trkpt lat="42.95371" lon="-0.13239">
        <ele>1717.53</ele>
        <time>2013-11-24T11:30:06Z</time>
      </trkpt>
      <trkpt lat="42.95372" lon="-0.1324">
        <ele>1716.09</ele>
        <time>2013-11-24T11:30:36Z</time>
      </trkpt>
      <trkpt lat="42.95373" lon="-0.13239">
        <ele>1716.09</ele>
        <time>2013-11-24T11:31:06Z</time>
      </trkpt>
      <trkpt lat="42.95366" lon="-0.13247">
        <ele>1716.57</ele>
        <time>2013-11-24T11:31:36Z</time>
      </trkpt>
      <trkpt lat="42.95359" lon="-0.13252">
        <ele>1718.97</ele>
        <time>2013-11-24T11:32:06Z</time>
      </trkpt>
      <trkpt lat="42.95359" lon="-0.13254">
        <ele>1718.97</ele>
        <time>2013-11-24T11:32:36Z</time>
      </trkpt>
      <trkpt lat="42.95359" lon="-0.13253">
        <ele>1718.97</ele>
        <time>2013-11-24T11:33:06Z</time>
      </trkpt>
      <trkpt lat="42.95359" lon="-0.13254">
        <ele>1719.46</ele>
        <time>2013-11-24T11:33:36Z</time>
      </trkpt>
      <trkpt lat="42.95358" lon="-0.13254">
        <ele>1719.46</ele>
        <time>2013-11-24T11:34:06Z</time>
      </trkpt>
      <trkpt lat="42.95334" lon="-0.1325">
        <ele>1719.46</ele>
        <time>2013-11-24T11:34:36Z</time>
      </trkpt>
      <trkpt lat="42.95308" lon="-0.13247">
        <ele>1720.9</ele>
        <time>2013-11-24T11:35:06Z</time>
      </trkpt>
      <trkpt lat="42.95286" lon="-0.1324">
        <ele>1723.78</ele>
        <time>2013-11-24T11:35:36Z</time>
      </trkpt>
      <trkpt lat="42.95267" lon="-0.1324">
        <ele>1728.11</ele>
        <time>2013-11-24T11:36:06Z</time>
      </trkpt>
      <trkpt lat="42.95246" lon="-0.13236">
        <ele>1730.51</ele>
        <time>2013-11-24T11:36:36Z</time>
      </trkpt>
      <trkpt lat="42.9523" lon="-0.13236">
        <ele>1732.43</ele>
        <time>2013-11-24T11:37:06Z</time>
      </trkpt>
      <trkpt lat="42.95218" lon="-0.13227">
        <ele>1739.16</ele>
        <time>2013-11-24T11:37:36Z</time>
      </trkpt>
      <trkpt lat="42.95212" lon="-0.13202">
        <ele>1744.45</ele>
        <time>2013-11-24T11:38:06Z</time>
      </trkpt>
      <trkpt lat="42.95212" lon="-0.13168">
        <ele>1743.97</ele>
        <time>2013-11-24T11:38:36Z</time>
      </trkpt>
      <trkpt lat="42.95212" lon="-0.13165">
        <ele>1741.57</ele>
        <time>2013-11-24T11:39:06Z</time>
      </trkpt>
      <trkpt lat="42.95212" lon="-0.13165">
        <ele>1742.05</ele>
        <time>2013-11-24T11:39:36Z</time>
      </trkpt>
      <trkpt lat="42.95212" lon="-0.13164">
        <ele>1741.08</ele>
        <time>2013-11-24T11:40:06Z</time>
      </trkpt>
      <trkpt lat="42.95212" lon="-0.13167">
        <ele>1741.08</ele>
        <time>2013-11-24T11:40:36Z</time>
      </trkpt>
      <trkpt lat="42.95208" lon="-0.13172">
        <ele>1742.05</ele>
        <time>2013-11-24T11:41:06Z</time>
      </trkpt>
      <trkpt lat="42.95207" lon="-0.13177">
        <ele>1742.05</ele>
        <time>2013-11-24T11:41:36Z</time>
      </trkpt>
      <trkpt lat="42.95206" lon="-0.13182">
        <ele>1742.53</ele>
        <time>2013-11-24T11:42:06Z</time>
      </trkpt>
      <trkpt lat="42.95205" lon="-0.13184">
        <ele>1742.05</ele>
        <time>2013-11-24T11:42:36Z</time>
      </trkpt>
      <trkpt lat="42.95205" lon="-0.13183">
        <ele>1742.53</ele>
        <time>2013-11-24T11:43:06Z</time>
      </trkpt>
      <trkpt lat="42.95205" lon="-0.13184">
        <ele>1743.97</ele>
        <time>2013-11-24T11:43:36Z</time>
      </trkpt>
      <trkpt lat="42.95209" lon="-0.13169">
        <ele>1741.08</ele>
        <time>2013-11-24T11:44:06Z</time>
      </trkpt>
      <trkpt lat="42.95209" lon="-0.13168">
        <ele>1741.08</ele>
        <time>2013-11-24T11:44:36Z</time>
      </trkpt>
      <trkpt lat="42.95211" lon="-0.13167">
        <ele>1741.57</ele>
        <time>2013-11-24T11:45:06Z</time>
      </trkpt>
      <trkpt lat="42.95208" lon="-0.13149">
        <ele>1740.6</ele>
        <time>2013-11-24T11:45:36Z</time>
      </trkpt>
      <trkpt lat="42.95189" lon="-0.13132">
        <ele>1741.08</ele>
        <time>2013-11-24T11:46:06Z</time>
      </trkpt>
      <trkpt lat="42.95168" lon="-0.13126">
        <ele>1742.53</ele>
        <time>2013-11-24T11:46:36Z</time>
      </trkpt>
      <trkpt lat="42.95148" lon="-0.1312">
        <ele>1746.37</ele>
        <time>2013-11-24T11:47:06Z</time>
      </trkpt>
      <trkpt lat="42.95132" lon="-0.13124">
        <ele>1748.78</ele>
        <time>2013-11-24T11:47:36Z</time>
      </trkpt>
      <trkpt lat="42.95131" lon="-0.13123">
        <ele>1748.78</ele>
        <time>2013-11-24T11:48:06Z</time>
      </trkpt>
      <trkpt lat="42.95132" lon="-0.13125">
        <ele>1748.78</ele>
        <time>2013-11-24T11:48:36Z</time>
      </trkpt>
      <trkpt lat="42.95131" lon="-0.13125">
        <ele>1748.29</ele>
        <time>2013-11-24T11:49:06Z</time>
      </trkpt>
      <trkpt lat="42.95124" lon="-0.13124">
        <ele>1749.74</ele>
        <time>2013-11-24T11:49:36Z</time>
      </trkpt>
      <trkpt lat="42.9511" lon="-0.1311">
        <ele>1749.26</ele>
        <time>2013-11-24T11:50:06Z</time>
      </trkpt>
      <trkpt lat="42.95104" lon="-0.13088">
        <ele>1754.54</ele>
        <time>2013-11-24T11:50:36Z</time>
      </trkpt>
      <trkpt lat="42.95099" lon="-0.1308">
        <ele>1756.95</ele>
        <time>2013-11-24T11:51:06Z</time>
      </trkpt>
      <trkpt lat="42.95086" lon="-0.13064">
        <ele>1758.39</ele>
        <time>2013-11-24T11:51:36Z</time>
      </trkpt>
      <trkpt lat="42.95082" lon="-0.13059">
        <ele>1758.87</ele>
        <time>2013-11-24T11:52:06Z</time>
      </trkpt>
      <trkpt lat="42.9508" lon="-0.13059">
        <ele>1759.35</ele>
        <time>2013-11-24T11:52:36Z</time>
      </trkpt>
      <trkpt lat="42.9508" lon="-0.13059">
        <ele>1761.75</ele>
        <time>2013-11-24T11:53:06Z</time>
      </trkpt>
      <trkpt lat="42.95081" lon="-0.13059">
        <ele>1760.79</ele>
        <time>2013-11-24T11:53:36Z</time>
      </trkpt>
      <trkpt lat="42.95081" lon="-0.13059">
        <ele>1760.31</ele>
        <time>2013-11-24T11:54:06Z</time>
      </trkpt>
      <trkpt lat="42.9508" lon="-0.13059">
        <ele>1761.75</ele>
        <time>2013-11-24T11:54:36Z</time>
      </trkpt>
      <trkpt lat="42.9508" lon="-0.13059">
        <ele>1760.31</ele>
        <time>2013-11-24T11:55:06Z</time>
      </trkpt>
      <trkpt lat="42.9508" lon="-0.13059">
        <ele>1759.83</ele>
        <time>2013-11-24T11:55:36Z</time>
      </trkpt>
      <trkpt lat="42.9508" lon="-0.1306">
        <ele>1758.39</ele>
        <time>2013-11-24T11:56:06Z</time>
      </trkpt>
      <trkpt lat="42.9508" lon="-0.13059">
        <ele>1758.39</ele>
        <time>2013-11-24T11:56:36Z</time>
      </trkpt>
      <trkpt lat="42.9508" lon="-0.1306">
        <ele>1759.83</ele>
        <time>2013-11-24T11:57:06Z</time>
      </trkpt>
      <trkpt lat="42.95081" lon="-0.13059">
        <ele>1757.91</ele>
        <time>2013-11-24T11:57:36Z</time>
      </trkpt>
      <trkpt lat="42.95081" lon="-0.1306">
        <ele>1757.91</ele>
        <time>2013-11-24T11:58:06Z</time>
      </trkpt>
      <trkpt lat="42.9508" lon="-0.13059">
        <ele>1759.35</ele>
        <time>2013-11-24T11:58:36Z</time>
      </trkpt>
      <trkpt lat="42.95081" lon="-0.13059">
        <ele>1761.75</ele>
        <time>2013-11-24T11:59:06Z</time>
      </trkpt>
      <trkpt lat="42.9508" lon="-0.13059">
        <ele>1760.79</ele>
        <time>2013-11-24T11:59:36Z</time>
      </trkpt>
      <trkpt lat="42.95079" lon="-0.13059">
        <ele>1760.79</ele>
        <time>2013-11-24T12:00:06Z</time>
      </trkpt>
      <trkpt lat="42.95081" lon="-0.13061">
        <ele>1759.35</ele>
        <time>2013-11-24T12:00:36Z</time>
      </trkpt>
      <trkpt lat="42.95079" lon="-0.13059">
        <ele>1758.87</ele>
        <time>2013-11-24T12:01:06Z</time>
      </trkpt>
      <trkpt lat="42.95079" lon="-0.1306">
        <ele>1759.35</ele>
        <time>2013-11-24T12:01:36Z</time>
      </trkpt>
      <trkpt lat="42.95079" lon="-0.1306">
        <ele>1758.39</ele>
        <time>2013-11-24T12:02:06Z</time>
      </trkpt>
      <trkpt lat="42.9508" lon="-0.1306">
        <ele>1758.87</ele>
        <time>2013-11-24T12:02:36Z</time>
      </trkpt>
      <trkpt lat="42.9508" lon="-0.13059">
        <ele>1758.87</ele>
        <time>2013-11-24T12:03:06Z</time>
      </trkpt>
      <trkpt lat="42.9508" lon="-0.13059">
        <ele>1758.87</ele>
        <time>2013-11-24T12:03:36Z</time>
      </trkpt>
      <trkpt lat="42.9508" lon="-0.1306">
        <ele>1758.87</ele>
        <time>2013-11-24T12:04:06Z</time>
      </trkpt>
      <trkpt lat="42.95079" lon="-0.1306">
        <ele>1758.39</ele>
        <time>2013-11-24T12:04:36Z</time>
      </trkpt>
      <trkpt lat="42.9508" lon="-0.13061">
        <ele>1758.39</ele>
        <time>2013-11-24T12:05:06Z</time>
      </trkpt>
      <trkpt lat="42.9508" lon="-0.1306">
        <ele>1758.39</ele>
        <time>2013-11-24T12:05:36Z</time>
      </trkpt>
      <trkpt lat="42.9508" lon="-0.1306">
        <ele>1760.79</ele>
        <time>2013-11-24T12:06:06Z</time>
      </trkpt>
      <trkpt lat="42.95081" lon="-0.13059">
        <ele>1760.31</ele>
        <time>2013-11-24T12:06:36Z</time>
      </trkpt>
      <trkpt lat="42.95083" lon="-0.13059">
        <ele>1759.83</ele>
        <time>2013-11-24T12:07:06Z</time>
      </trkpt>
      <trkpt lat="42.95081" lon="-0.13059">
        <ele>1756.95</ele>
        <time>2013-11-24T12:07:36Z</time>
      </trkpt>
      <trkpt lat="42.9508" lon="-0.1306">
        <ele>1755.5</ele>
        <time>2013-11-24T12:08:06Z</time>
      </trkpt>
      <trkpt lat="42.95078" lon="-0.13059">
        <ele>1752.62</ele>
        <time>2013-11-24T12:08:36Z</time>
      </trkpt>
      <trkpt lat="42.95081" lon="-0.13061">
        <ele>1753.58</ele>
        <time>2013-11-24T12:09:06Z</time>
      </trkpt>
      <trkpt lat="42.95081" lon="-0.13059">
        <ele>1754.06</ele>
        <time>2013-11-24T12:09:36Z</time>
      </trkpt>
      <trkpt lat="42.95081" lon="-0.1306">
        <ele>1753.58</ele>
        <time>2013-11-24T12:10:06Z</time>
      </trkpt>
      <trkpt lat="42.9508" lon="-0.13059">
        <ele>1755.02</ele>
        <time>2013-11-24T12:10:36Z</time>
      </trkpt>
      <trkpt lat="42.95084" lon="-0.13055">
        <ele>1755.5</ele>
        <time>2013-11-24T12:11:06Z</time>
      </trkpt>
      <trkpt lat="42.95086" lon="-0.13056">
        <ele>1756.95</ele>
        <time>2013-11-24T12:11:36Z</time>
      </trkpt>
      <trkpt lat="42.95084" lon="-0.13068">
        <ele>1754.54</ele>
        <time>2013-11-24T12:12:06Z</time>
      </trkpt>
      <trkpt lat="42.95085" lon="-0.13067">
        <ele>1755.5</ele>
        <time>2013-11-24T12:12:36Z</time>
      </trkpt>
      <trkpt lat="42.95085" lon="-0.13067">
        <ele>1755.99</ele>
        <time>2013-11-24T12:13:06Z</time>
      </trkpt>
      <trkpt lat="42.95125" lon="-0.13112">
        <ele>1751.18</ele>
        <time>2013-11-24T12:13:36Z</time>
      </trkpt>
      <trkpt lat="42.95175" lon="-0.13127">
        <ele>1743.49</ele>
        <time>2013-11-24T12:14:06Z</time>
      </trkpt>
      <trkpt lat="42.95214" lon="-0.13164">
        <ele>1741.08</ele>
        <time>2013-11-24T12:14:36Z</time>
      </trkpt>
      <trkpt lat="42.95224" lon="-0.13216">
        <ele>1742.05</ele>
        <time>2013-11-24T12:15:06Z</time>
      </trkpt>
      <trkpt lat="42.95284" lon="-0.13237">
        <ele>1726.18</ele>
        <time>2013-11-24T12:15:36Z</time>
      </trkpt>
      <trkpt lat="42.95349" lon="-0.13243">
        <ele>1721.38</ele>
        <time>2013-11-24T12:16:06Z</time>
      </trkpt>
      <trkpt lat="42.95392" lon="-0.13212">
        <ele>1715.61</ele>
        <time>2013-11-24T12:16:36Z</time>
      </trkpt>
      <trkpt lat="42.95459" lon="-0.1312">
        <ele>1698.79</ele>
        <time>2013-11-24T12:17:06Z</time>
      </trkpt>
      <trkpt lat="42.95523" lon="-0.1305">
        <ele>1681.96</ele>
        <time>2013-11-24T12:17:36Z</time>
      </trkpt>
      <trkpt lat="42.95524" lon="-0.13057">
        <ele>1672.83</ele>
        <time>2013-11-24T12:18:06Z</time>
      </trkpt>
      <trkpt lat="42.95525" lon="-0.13056">
        <ele>1669.95</ele>
        <time>2013-11-24T12:18:36Z</time>
      </trkpt>
      <trkpt lat="42.95539" lon="-0.13059">
        <ele>1667.54</ele>
        <time>2013-11-24T12:19:06Z</time>
      </trkpt>
      <trkpt lat="42.95578" lon="-0.12969">
        <ele>1649.76</ele>
        <time>2013-11-24T12:19:36Z</time>
      </trkpt>
      <trkpt lat="42.95599" lon="-0.12957">
        <ele>1638.7</ele>
        <time>2013-11-24T12:20:06Z</time>
      </trkpt>
      <trkpt lat="42.95643" lon="-0.12912">
        <ele>1631.98</ele>
        <time>2013-11-24T12:20:36Z</time>
      </trkpt>
      <trkpt lat="42.95719" lon="-0.12893">
        <ele>1618.52</ele>
        <time>2013-11-24T12:21:06Z</time>
      </trkpt>
      <trkpt lat="42.95796" lon="-0.12922">
        <ele>1606.02</ele>
        <time>2013-11-24T12:21:36Z</time>
      </trkpt>
      <trkpt lat="42.9588" lon="-0.12984">
        <ele>1586.31</ele>
        <time>2013-11-24T12:22:06Z</time>
      </trkpt>
      <trkpt lat="42.95906" lon="-0.12991">
        <ele>1568.05</ele>
        <time>2013-11-24T12:22:36Z</time>
      </trkpt>
      <trkpt lat="42.95906" lon="-0.12994">
        <ele>1564.2</ele>
        <time>2013-11-24T12:23:06Z</time>
      </trkpt>
      <trkpt lat="42.95904" lon="-0.12993">
        <ele>1561.8</ele>
        <time>2013-11-24T12:23:36Z</time>
      </trkpt>
      <trkpt lat="42.95905" lon="-0.12992">
        <ele>1561.32</ele>
        <time>2013-11-24T12:24:06Z</time>
      </trkpt>
      <trkpt lat="42.95902" lon="-0.12996">
        <ele>1560.36</ele>
        <time>2013-11-24T12:24:36Z</time>
      </trkpt>
      <trkpt lat="42.95909" lon="-0.12988">
        <ele>1556.99</ele>
        <time>2013-11-24T12:25:06Z</time>
      </trkpt>
      <trkpt lat="42.95969" lon="-0.13003">
        <ele>1546.42</ele>
        <time>2013-11-24T12:25:36Z</time>
      </trkpt>
      <trkpt lat="42.96042" lon="-0.13001">
        <ele>1528.15</ele>
        <time>2013-11-24T12:26:06Z</time>
      </trkpt>
      <trkpt lat="42.96096" lon="-0.13025">
        <ele>1513.25</ele>
        <time>2013-11-24T12:26:36Z</time>
      </trkpt>
      <trkpt lat="42.96144" lon="-0.13036">
        <ele>1499.79</ele>
        <time>2013-11-24T12:27:06Z</time>
      </trkpt>
      <trkpt lat="42.96195" lon="-0.13077">
        <ele>1487.3</ele>
        <time>2013-11-24T12:27:36Z</time>
      </trkpt>
      <trkpt lat="42.96243" lon="-0.13129">
        <ele>1469.03</ele>
        <time>2013-11-24T12:28:06Z</time>
      </trkpt>
      <trkpt lat="42.96245" lon="-0.1314">
        <ele>1464.71</ele>
        <time>2013-11-24T12:28:36Z</time>
      </trkpt>
      <trkpt lat="42.96239" lon="-0.13153">
        <ele>1464.71</ele>
        <time>2013-11-24T12:29:06Z</time>
      </trkpt>
      <trkpt lat="42.96248" lon="-0.13152">
        <ele>1464.23</ele>
        <time>2013-11-24T12:29:36Z</time>
      </trkpt>
      <trkpt lat="42.96259" lon="-0.13157">
        <ele>1456.05</ele>
        <time>2013-11-24T12:30:06Z</time>
      </trkpt>
      <trkpt lat="42.9628" lon="-0.13185">
        <ele>1447.4</ele>
        <time>2013-11-24T12:30:36Z</time>
      </trkpt>
      <trkpt lat="42.963" lon="-0.13182">
        <ele>1443.56</ele>
        <time>2013-11-24T12:31:06Z</time>
      </trkpt>
      <trkpt lat="42.963" lon="-0.1318">
        <ele>1443.56</ele>
        <time>2013-11-24T12:31:36Z</time>
      </trkpt>
      <trkpt lat="42.96323" lon="-0.13174">
        <ele>1436.35</ele>
        <time>2013-11-24T12:32:06Z</time>
      </trkpt>
      <trkpt lat="42.96376" lon="-0.13146">
        <ele>1425.29</ele>
        <time>2013-11-24T12:32:36Z</time>
      </trkpt>
      <trkpt lat="42.96385" lon="-0.13127">
        <ele>1420</ele>
        <time>2013-11-24T12:33:06Z</time>
      </trkpt>
      <trkpt lat="42.96425" lon="-0.13154">
        <ele>1411.83</ele>
        <time>2013-11-24T12:33:36Z</time>
      </trkpt>
      <trkpt lat="42.96475" lon="-0.13171">
        <ele>1393.57</ele>
        <time>2013-11-24T12:34:06Z</time>
      </trkpt>
      <trkpt lat="42.96477" lon="-0.13194">
        <ele>1389.72</ele>
        <time>2013-11-24T12:34:36Z</time>
      </trkpt>
      <trkpt lat="42.96475" lon="-0.13195">
        <ele>1393.09</ele>
        <time>2013-11-24T12:35:06Z</time>
      </trkpt>
      <trkpt lat="42.96475" lon="-0.13193">
        <ele>1394.53</ele>
        <time>2013-11-24T12:35:36Z</time>
      </trkpt>
      <trkpt lat="42.96476" lon="-0.13195">
        <ele>1394.05</ele>
        <time>2013-11-24T12:36:06Z</time>
      </trkpt>
      <trkpt lat="42.96478" lon="-0.13196">
        <ele>1395.01</ele>
        <time>2013-11-24T12:36:36Z</time>
      </trkpt>
      <trkpt lat="42.96478" lon="-0.13196">
        <ele>1396.45</ele>
        <time>2013-11-24T12:37:06Z</time>
      </trkpt>
      <trkpt lat="42.96477" lon="-0.13196">
        <ele>1397.89</ele>
        <time>2013-11-24T12:37:36Z</time>
      </trkpt>
      <trkpt lat="42.96475" lon="-0.13197">
        <ele>1398.86</ele>
        <time>2013-11-24T12:38:06Z</time>
      </trkpt>
      <trkpt lat="42.96478" lon="-0.13196">
        <ele>1395.97</ele>
        <time>2013-11-24T12:38:36Z</time>
      </trkpt>
      <trkpt lat="42.96488" lon="-0.13235">
        <ele>1390.68</ele>
        <time>2013-11-24T12:39:06Z</time>
      </trkpt>
      <trkpt lat="42.96486" lon="-0.13315">
        <ele>1379.15</ele>
        <time>2013-11-24T12:39:36Z</time>
      </trkpt>
      <trkpt lat="42.96479" lon="-0.13375">
        <ele>1369.05</ele>
        <time>2013-11-24T12:40:06Z</time>
      </trkpt>
      <trkpt lat="42.96462" lon="-0.13429">
        <ele>1358.96</ele>
        <time>2013-11-24T12:40:36Z</time>
      </trkpt>
      <trkpt lat="42.9644" lon="-0.13461">
        <ele>1350.31</ele>
        <time>2013-11-24T12:41:06Z</time>
      </trkpt>
      <trkpt lat="42.96438" lon="-0.13465">
        <ele>1349.35</ele>
        <time>2013-11-24T12:41:36Z</time>
      </trkpt>
      <trkpt lat="42.96438" lon="-0.13466">
        <ele>1350.31</ele>
        <time>2013-11-24T12:42:06Z</time>
      </trkpt>
      <trkpt lat="42.96439" lon="-0.1347">
        <ele>1355.6</ele>
        <time>2013-11-24T12:42:36Z</time>
      </trkpt>
      <trkpt lat="42.96436" lon="-0.13466">
        <ele>1351.75</ele>
        <time>2013-11-24T12:43:06Z</time>
      </trkpt>
      <trkpt lat="42.96437" lon="-0.13468">
        <ele>1354.63</ele>
        <time>2013-11-24T12:43:36Z</time>
      </trkpt>
      <trkpt lat="42.96438" lon="-0.13472">
        <ele>1356.56</ele>
        <time>2013-11-24T12:44:06Z</time>
      </trkpt>
      <trkpt lat="42.96441" lon="-0.13473">
        <ele>1357.04</ele>
        <time>2013-11-24T12:44:36Z</time>
      </trkpt>
      <trkpt lat="42.9644" lon="-0.13476">
        <ele>1355.12</ele>
        <time>2013-11-24T12:45:06Z</time>
      </trkpt>
      <trkpt lat="42.9644" lon="-0.13473">
        <ele>1358</ele>
        <time>2013-11-24T12:45:36Z</time>
      </trkpt>
      <trkpt lat="42.96453" lon="-0.13489">
        <ele>1352.23</ele>
        <time>2013-11-24T12:46:06Z</time>
      </trkpt>
      <trkpt lat="42.96472" lon="-0.13514">
        <ele>1341.18</ele>
        <time>2013-11-24T12:46:36Z</time>
      </trkpt>
      <trkpt lat="42.96472" lon="-0.13527">
        <ele>1337.81</ele>
        <time>2013-11-24T12:47:06Z</time>
      </trkpt>
      <trkpt lat="42.96478" lon="-0.13519">
        <ele>1331.56</ele>
        <time>2013-11-24T12:47:36Z</time>
      </trkpt>
      <trkpt lat="42.96484" lon="-0.1352">
        <ele>1335.89</ele>
        <time>2013-11-24T12:48:06Z</time>
      </trkpt>
      <trkpt lat="42.96487" lon="-0.13514">
        <ele>1331.56</ele>
        <time>2013-11-24T12:48:36Z</time>
      </trkpt>
      <trkpt lat="42.96493" lon="-0.1351">
        <ele>1331.08</ele>
        <time>2013-11-24T12:49:06Z</time>
      </trkpt>
      <trkpt lat="42.96514" lon="-0.13517">
        <ele>1332.04</ele>
        <time>2013-11-24T12:49:36Z</time>
      </trkpt>
      <trkpt lat="42.96526" lon="-0.13521">
        <ele>1330.6</ele>
        <time>2013-11-24T12:50:06Z</time>
      </trkpt>
      <trkpt lat="42.96537" lon="-0.13528">
        <ele>1325.8</ele>
        <time>2013-11-24T12:50:36Z</time>
      </trkpt>
      <trkpt lat="42.96555" lon="-0.13541">
        <ele>1318.1</ele>
        <time>2013-11-24T12:51:06Z</time>
      </trkpt>
      <trkpt lat="42.96575" lon="-0.13571">
        <ele>1316.66</ele>
        <time>2013-11-24T12:51:36Z</time>
      </trkpt>
      <trkpt lat="42.96607" lon="-0.13636">
        <ele>1310.9</ele>
        <time>2013-11-24T12:52:06Z</time>
      </trkpt>
      <trkpt lat="42.96623" lon="-0.13658">
        <ele>1310.41</ele>
        <time>2013-11-24T12:52:36Z</time>
      </trkpt>
      <trkpt lat="42.96633" lon="-0.13673">
        <ele>1308.49</ele>
        <time>2013-11-24T12:53:06Z</time>
      </trkpt>
      <trkpt lat="42.96651" lon="-0.13694">
        <ele>1308.49</ele>
        <time>2013-11-24T12:53:36Z</time>
      </trkpt>
      <trkpt lat="42.96657" lon="-0.13699">
        <ele>1308.97</ele>
        <time>2013-11-24T12:54:06Z</time>
      </trkpt>
      <trkpt lat="42.96662" lon="-0.13706">
        <ele>1309.45</ele>
        <time>2013-11-24T12:54:36Z</time>
      </trkpt>
      <trkpt lat="42.96666" lon="-0.1371">
        <ele>1310.9</ele>
        <time>2013-11-24T12:55:06Z</time>
      </trkpt>
      <trkpt lat="42.96691" lon="-0.13715">
        <ele>1307.53</ele>
        <time>2013-11-24T12:55:36Z</time>
      </trkpt>
      <trkpt lat="42.96704" lon="-0.13717">
        <ele>1308.01</ele>
        <time>2013-11-24T12:56:06Z</time>
      </trkpt>
      <trkpt lat="42.96704" lon="-0.13718">
        <ele>1310.41</ele>
        <time>2013-11-24T12:56:36Z</time>
      </trkpt>
      <trkpt lat="42.96706" lon="-0.13721">
        <ele>1311.86</ele>
        <time>2013-11-24T12:57:06Z</time>
      </trkpt>
      <trkpt lat="42.967" lon="-0.13721">
        <ele>1311.86</ele>
        <time>2013-11-24T12:57:36Z</time>
      </trkpt>
      <trkpt lat="42.96709" lon="-0.13707">
        <ele>1309.45</ele>
        <time>2013-11-24T12:58:06Z</time>
      </trkpt>
      <trkpt lat="42.96714" lon="-0.13715">
        <ele>1308.49</ele>
        <time>2013-11-24T12:58:36Z</time>
      </trkpt>
      <trkpt lat="42.96719" lon="-0.13716">
        <ele>1304.65</ele>
        <time>2013-11-24T12:59:06Z</time>
      </trkpt>
      <trkpt lat="42.96722" lon="-0.13717">
        <ele>1304.17</ele>
        <time>2013-11-24T12:59:36Z</time>
      </trkpt>
      <trkpt lat="42.96719" lon="-0.1371">
        <ele>1318.59</ele>
        <time>2013-11-24T13:00:06Z</time>
      </trkpt>
      <trkpt lat="42.96718" lon="-0.13716">
        <ele>1314.74</ele>
        <time>2013-11-24T13:00:36Z</time>
      </trkpt>
      <trkpt lat="42.96704" lon="-0.13717">
        <ele>1316.66</ele>
        <time>2013-11-24T13:01:06Z</time>
      </trkpt>
      <trkpt lat="42.96706" lon="-0.13714">
        <ele>1312.82</ele>
        <time>2013-11-24T13:01:36Z</time>
      </trkpt>
      <trkpt lat="42.96697" lon="-0.13715">
        <ele>1318.59</ele>
        <time>2013-11-24T13:02:06Z</time>
      </trkpt>
      <trkpt lat="42.96702" lon="-0.13722">
        <ele>1321.47</ele>
        <time>2013-11-24T13:02:36Z</time>
      </trkpt>
      <trkpt lat="42.96701" lon="-0.1373">
        <ele>1326.28</ele>
        <time>2013-11-24T13:03:06Z</time>
      </trkpt>
      <trkpt lat="42.96706" lon="-0.13723">
        <ele>1325.8</ele>
        <time>2013-11-24T13:03:36Z</time>
      </trkpt>
      <trkpt lat="42.96707" lon="-0.13738">
        <ele>1342.62</ele>
        <time>2013-11-24T13:04:06Z</time>
      </trkpt>
      <trkpt lat="42.9671" lon="-0.13731">
        <ele>1341.66</ele>
        <time>2013-11-24T13:04:36Z</time>
      </trkpt>
      <trkpt lat="42.96705" lon="-0.13729">
        <ele>1340.22</ele>
        <time>2013-11-24T13:05:06Z</time>
      </trkpt>
      <trkpt lat="42.96703" lon="-0.13727">
        <ele>1333.97</ele>
        <time>2013-11-24T13:05:36Z</time>
      </trkpt>
      <trkpt lat="42.96716" lon="-0.13731">
        <ele>1334.45</ele>
        <time>2013-11-24T13:06:06Z</time>
      </trkpt>
      <trkpt lat="42.96715" lon="-0.13728">
        <ele>1333.01</ele>
        <time>2013-11-24T13:06:36Z</time>
      </trkpt>
      <trkpt lat="42.96707" lon="-0.13729">
        <ele>1336.85</ele>
        <time>2013-11-24T13:07:06Z</time>
      </trkpt>
      <trkpt lat="42.96702" lon="-0.13725">
        <ele>1340.7</ele>
        <time>2013-11-24T13:07:36Z</time>
      </trkpt>
      <trkpt lat="42.96706" lon="-0.13736">
        <ele>1344.54</ele>
        <time>2013-11-24T13:08:06Z</time>
      </trkpt>
      <trkpt lat="42.96709" lon="-0.13732">
        <ele>1339.73</ele>
        <time>2013-11-24T13:08:36Z</time>
      </trkpt>
      <trkpt lat="42.96712" lon="-0.13738">
        <ele>1343.58</ele>
        <time>2013-11-24T13:09:06Z</time>
      </trkpt>
      <trkpt lat="42.96708" lon="-0.13747">
        <ele>1358.48</ele>
        <time>2013-11-24T13:09:36Z</time>
      </trkpt>
      <trkpt lat="42.96725" lon="-0.13732">
        <ele>1339.73</ele>
        <time>2013-11-24T13:10:06Z</time>
      </trkpt>
      <trkpt lat="42.96717" lon="-0.13743">
        <ele>1345.98</ele>
        <time>2013-11-24T13:10:36Z</time>
      </trkpt>
      <trkpt lat="42.9671" lon="-0.13745">
        <ele>1347.91</ele>
        <time>2013-11-24T13:11:06Z</time>
      </trkpt>
      <trkpt lat="42.96702" lon="-0.13743">
        <ele>1343.1</ele>
        <time>2013-11-24T13:11:36Z</time>
      </trkpt>
      <trkpt lat="42.96693" lon="-0.13756">
        <ele>1355.6</ele>
        <time>2013-11-24T13:12:05Z</time>
      </trkpt>
      <trkpt lat="42.96717" lon="-0.13729">
        <ele>1354.63</ele>
        <time>2013-11-24T13:12:36Z</time>
      </trkpt>
      <trkpt lat="42.96735" lon="-0.13736">
        <ele>1354.63</ele>
        <time>2013-11-24T13:13:06Z</time>
      </trkpt>
      <trkpt lat="42.96738" lon="-0.1372">
        <ele>1354.15</ele>
        <time>2013-11-24T13:13:36Z</time>
      </trkpt>
      <trkpt lat="42.96739" lon="-0.13713">
        <ele>1353.19</ele>
        <time>2013-11-24T13:14:06Z</time>
      </trkpt>
      <trkpt lat="42.96722" lon="-0.13719">
        <ele>1331.56</ele>
        <time>2013-11-24T13:14:36Z</time>
      </trkpt>
      <trkpt lat="42.96714" lon="-0.13717">
        <ele>1333.01</ele>
        <time>2013-11-24T13:15:06Z</time>
      </trkpt>
      <trkpt lat="42.96723" lon="-0.13721">
        <ele>1326.28</ele>
        <time>2013-11-24T13:15:36Z</time>
      </trkpt>
      <trkpt lat="42.96714" lon="-0.13711">
        <ele>1312.82</ele>
        <time>2013-11-24T13:16:06Z</time>
      </trkpt>
      <trkpt lat="42.96709" lon="-0.13703">
        <ele>1296.48</ele>
        <time>2013-11-24T13:16:36Z</time>
      </trkpt>
      <trkpt lat="42.96701" lon="-0.13697">
        <ele>1291.19</ele>
        <time>2013-11-24T13:17:06Z</time>
      </trkpt>
      <trkpt lat="42.96714" lon="-0.13707">
        <ele>1295.51</ele>
        <time>2013-11-24T13:17:36Z</time>
      </trkpt>
      <trkpt lat="42.96711" lon="-0.13711">
        <ele>1306.57</ele>
        <time>2013-11-24T13:18:06Z</time>
      </trkpt>
      <trkpt lat="42.96708" lon="-0.13709">
        <ele>1297.92</ele>
        <time>2013-11-24T13:18:36Z</time>
      </trkpt>
      <trkpt lat="42.96704" lon="-0.13712">
        <ele>1301.28</ele>
        <time>2013-11-24T13:19:06Z</time>
      </trkpt>
      <trkpt lat="42.96708" lon="-0.13715">
        <ele>1300.32</ele>
        <time>2013-11-24T13:19:36Z</time>
      </trkpt>
      <trkpt lat="42.96711" lon="-0.13712">
        <ele>1301.28</ele>
        <time>2013-11-24T13:20:06Z</time>
      </trkpt>
      <trkpt lat="42.9671" lon="-0.13717">
        <ele>1298.88</ele>
        <time>2013-11-24T13:20:36Z</time>
      </trkpt>
      <trkpt lat="42.96716" lon="-0.13722">
        <ele>1294.55</ele>
        <time>2013-11-24T13:21:06Z</time>
      </trkpt>
      <trkpt lat="42.96719" lon="-0.13719">
        <ele>1294.07</ele>
        <time>2013-11-24T13:21:36Z</time>
      </trkpt>
      <trkpt lat="42.96708" lon="-0.13715">
        <ele>1309.93</ele>
        <time>2013-11-24T13:22:06Z</time>
      </trkpt>
      <trkpt lat="42.96708" lon="-0.13715">
        <ele>1307.53</ele>
        <time>2013-11-24T13:22:36Z</time>
      </trkpt>
      <trkpt lat="42.96711" lon="-0.13714">
        <ele>1307.53</ele>
        <time>2013-11-24T13:23:06Z</time>
      </trkpt>
      <trkpt lat="42.96707" lon="-0.13715">
        <ele>1307.05</ele>
        <time>2013-11-24T13:23:36Z</time>
      </trkpt>
      <trkpt lat="42.96705" lon="-0.13708">
        <ele>1306.57</ele>
        <time>2013-11-24T13:24:06Z</time>
      </trkpt>
      <trkpt lat="42.96704" lon="-0.1371">
        <ele>1306.57</ele>
        <time>2013-11-24T13:24:36Z</time>
      </trkpt>
      <trkpt lat="42.96707" lon="-0.13715">
        <ele>1305.61</ele>
        <time>2013-11-24T13:25:06Z</time>
      </trkpt>
      <trkpt lat="42.96673" lon="-0.13694">
        <ele>1302.72</ele>
        <time>2013-11-24T13:25:36Z</time>
      </trkpt>
      <trkpt lat="42.96659" lon="-0.13684">
        <ele>1299.36</ele>
        <time>2013-11-24T13:26:06Z</time>
      </trkpt>
      <trkpt lat="42.96684" lon="-0.13724">
        <ele>1304.17</ele>
        <time>2013-11-24T13:26:36Z</time>
      </trkpt>
      <trkpt lat="42.96695" lon="-0.13729">
        <ele>1305.13</ele>
        <time>2013-11-24T13:27:06Z</time>
      </trkpt>
      <trkpt lat="42.96713" lon="-0.13724">
        <ele>1306.09</ele>
        <time>2013-11-24T13:27:36Z</time>
      </trkpt>
      <trkpt lat="42.96704" lon="-0.13724">
        <ele>1306.09</ele>
        <time>2013-11-24T13:28:06Z</time>
      </trkpt>
      <trkpt lat="42.96708" lon="-0.13727">
        <ele>1306.09</ele>
        <time>2013-11-24T13:28:36Z</time>
      </trkpt>
      <trkpt lat="42.96732" lon="-0.1371">
        <ele>1306.57</ele>
        <time>2013-11-24T13:29:06Z</time>
      </trkpt>
      <trkpt lat="42.96741" lon="-0.13733">
        <ele>1307.53</ele>
        <time>2013-11-24T13:29:36Z</time>
      </trkpt>
      <trkpt lat="42.96705" lon="-0.13716">
        <ele>1309.45</ele>
        <time>2013-11-24T13:30:06Z</time>
      </trkpt>
      <trkpt lat="42.96707" lon="-0.13714">
        <ele>1311.38</ele>
        <time>2013-11-24T13:30:36Z</time>
      </trkpt>
      <trkpt lat="42.96714" lon="-0.13712">
        <ele>1310.9</ele>
        <time>2013-11-24T13:31:06Z</time>
      </trkpt>
      <trkpt lat="42.96711" lon="-0.13718">
        <ele>1317.62</ele>
        <time>2013-11-24T13:31:36Z</time>
      </trkpt>
      <trkpt lat="42.96712" lon="-0.13728">
        <ele>1318.59</ele>
        <time>2013-11-24T13:32:06Z</time>
      </trkpt>
      <trkpt lat="42.96697" lon="-0.1371">
        <ele>1314.74</ele>
        <time>2013-11-24T13:32:36Z</time>
      </trkpt>
      <trkpt lat="42.96698" lon="-0.13713">
        <ele>1318.1</ele>
        <time>2013-11-24T13:33:06Z</time>
      </trkpt>
      <trkpt lat="42.96704" lon="-0.13718">
        <ele>1315.22</ele>
        <time>2013-11-24T13:33:36Z</time>
      </trkpt>
      <trkpt lat="42.96705" lon="-0.13722">
        <ele>1313.3</ele>
        <time>2013-11-24T13:34:06Z</time>
      </trkpt>
      <trkpt lat="42.96711" lon="-0.13721">
        <ele>1309.45</ele>
        <time>2013-11-24T13:34:36Z</time>
      </trkpt>
      <trkpt lat="42.9671" lon="-0.13703">
        <ele>1306.57</ele>
        <time>2013-11-24T13:35:06Z</time>
      </trkpt>
      <trkpt lat="42.96715" lon="-0.13711">
        <ele>1309.93</ele>
        <time>2013-11-24T13:35:36Z</time>
      </trkpt>
      <trkpt lat="42.96717" lon="-0.13713">
        <ele>1311.38</ele>
        <time>2013-11-24T13:36:06Z</time>
      </trkpt>
      <trkpt lat="42.96717" lon="-0.13714">
        <ele>1315.7</ele>
        <time>2013-11-24T13:36:36Z</time>
      </trkpt>
      <trkpt lat="42.96714" lon="-0.13712">
        <ele>1316.18</ele>
        <time>2013-11-24T13:37:06Z</time>
      </trkpt>
      <trkpt lat="42.96713" lon="-0.13712">
        <ele>1317.14</ele>
        <time>2013-11-24T13:37:36Z</time>
      </trkpt>
      <trkpt lat="42.96712" lon="-0.13719">
        <ele>1313.3</ele>
        <time>2013-11-24T13:38:06Z</time>
      </trkpt>
      <trkpt lat="42.96698" lon="-0.13715">
        <ele>1308.49</ele>
        <time>2013-11-24T13:38:36Z</time>
      </trkpt>
      <trkpt lat="42.96702" lon="-0.13709">
        <ele>1306.09</ele>
        <time>2013-11-24T13:39:06Z</time>
      </trkpt>
      <trkpt lat="42.96699" lon="-0.13708">
        <ele>1309.45</ele>
        <time>2013-11-24T13:39:36Z</time>
      </trkpt>
      <trkpt lat="42.96693" lon="-0.13711">
        <ele>1308.01</ele>
        <time>2013-11-24T13:40:06Z</time>
      </trkpt>
      <trkpt lat="42.96673" lon="-0.13714">
        <ele>1311.86</ele>
        <time>2013-11-24T13:40:36Z</time>
      </trkpt>
      <trkpt lat="42.96667" lon="-0.1374">
        <ele>1312.82</ele>
        <time>2013-11-24T13:41:06Z</time>
      </trkpt>
      <trkpt lat="42.96669" lon="-0.13742">
        <ele>1310.41</ele>
        <time>2013-11-24T13:41:36Z</time>
      </trkpt>
      <trkpt lat="42.96669" lon="-0.13748">
        <ele>1311.38</ele>
        <time>2013-11-24T13:42:06Z</time>
      </trkpt>
      <trkpt lat="42.96666" lon="-0.13739">
        <ele>1312.34</ele>
        <time>2013-11-24T13:42:36Z</time>
      </trkpt>
      <trkpt lat="42.96665" lon="-0.13741">
        <ele>1313.3</ele>
        <time>2013-11-24T13:43:06Z</time>
      </trkpt>
      <trkpt lat="42.96667" lon="-0.13744">
        <ele>1314.26</ele>
        <time>2013-11-24T13:43:36Z</time>
      </trkpt>
      <trkpt lat="42.96668" lon="-0.13743">
        <ele>1315.22</ele>
        <time>2013-11-24T13:44:06Z</time>
      </trkpt>
      <trkpt lat="42.96666" lon="-0.13745">
        <ele>1314.74</ele>
        <time>2013-11-24T13:44:36Z</time>
      </trkpt>
      <trkpt lat="42.96667" lon="-0.13742">
        <ele>1313.3</ele>
        <time>2013-11-24T13:45:06Z</time>
      </trkpt>
      <trkpt lat="42.9667" lon="-0.1375">
        <ele>1318.1</ele>
        <time>2013-11-24T13:45:36Z</time>
      </trkpt>
      <trkpt lat="42.96658" lon="-0.13779">
        <ele>1309.45</ele>
        <time>2013-11-24T13:46:06Z</time>
      </trkpt>
      <trkpt lat="42.96629" lon="-0.1382">
        <ele>1304.17</ele>
        <time>2013-11-24T13:46:36Z</time>
      </trkpt>
      <trkpt lat="42.96553" lon="-0.1393">
        <ele>1300.8</ele>
        <time>2013-11-24T13:47:06Z</time>
      </trkpt>
      <trkpt lat="42.96484" lon="-0.14092">
        <ele>1295.51</ele>
        <time>2013-11-24T13:47:36Z</time>
      </trkpt>
      <trkpt lat="42.96459" lon="-0.14226">
        <ele>1295.99</ele>
        <time>2013-11-24T13:48:06Z</time>
      </trkpt>
      <trkpt lat="42.96455" lon="-0.1443">
        <ele>1282.06</ele>
        <time>2013-11-24T13:48:36Z</time>
      </trkpt>
      <trkpt lat="42.96455" lon="-0.14471">
        <ele>1276.29</ele>
        <time>2013-11-24T13:49:06Z</time>
      </trkpt>
      <trkpt lat="42.96483" lon="-0.14423">
        <ele>1273.4</ele>
        <time>2013-11-24T13:49:36Z</time>
      </trkpt>
      <trkpt lat="42.96546" lon="-0.14214">
        <ele>1219.09</ele>
        <time>2013-11-24T13:50:06Z</time>
      </trkpt>
      <trkpt lat="42.96573" lon="-0.14132">
        <ele>1196.02</ele>
        <time>2013-11-24T13:50:36Z</time>
      </trkpt>
      <trkpt lat="42.96653" lon="-0.1406">
        <ele>1186.88</ele>
        <time>2013-11-24T13:51:06Z</time>
      </trkpt>
      <trkpt lat="42.96739" lon="-0.13992">
        <ele>1186.88</ele>
        <time>2013-11-24T13:51:36Z</time>
      </trkpt>
      <trkpt lat="42.96874" lon="-0.13992">
        <ele>1188.33</ele>
        <time>2013-11-24T13:52:06Z</time>
      </trkpt>
      <trkpt lat="42.96954" lon="-0.13986">
        <ele>1184.96</ele>
        <time>2013-11-24T13:52:36Z</time>
      </trkpt>
      <trkpt lat="42.96956" lon="-0.13979">
        <ele>1183.52</ele>
        <time>2013-11-24T13:53:06Z</time>
      </trkpt>
      <trkpt lat="42.9695" lon="-0.13984">
        <ele>1189.77</ele>
        <time>2013-11-24T13:53:36Z</time>
      </trkpt>
      <trkpt lat="42.96948" lon="-0.13979">
        <ele>1180.64</ele>
        <time>2013-11-24T13:54:06Z</time>
      </trkpt>
      <trkpt lat="42.96946" lon="-0.13981">
        <ele>1183.04</ele>
        <time>2013-11-24T13:54:36Z</time>
      </trkpt>
      <trkpt lat="42.96986" lon="-0.13995">
        <ele>1181.6</ele>
        <time>2013-11-24T13:55:06Z</time>
      </trkpt>
      <trkpt lat="42.97101" lon="-0.14005">
        <ele>1173.91</ele>
        <time>2013-11-24T13:55:36Z</time>
      </trkpt>
      <trkpt lat="42.97199" lon="-0.13983">
        <ele>1161.89</ele>
        <time>2013-11-24T13:56:06Z</time>
      </trkpt>
      <trkpt lat="42.97235" lon="-0.13851">
        <ele>1143.14</ele>
        <time>2013-11-24T13:56:36Z</time>
      </trkpt>
      <trkpt lat="42.97263" lon="-0.13771">
        <ele>1133.05</ele>
        <time>2013-11-24T13:57:06Z</time>
      </trkpt>
      <trkpt lat="42.9727" lon="-0.13732">
        <ele>1131.61</ele>
        <time>2013-11-24T13:57:36Z</time>
      </trkpt>
      <trkpt lat="42.97279" lon="-0.13702">
        <ele>1133.05</ele>
        <time>2013-11-24T13:58:06Z</time>
      </trkpt>
      <trkpt lat="42.97298" lon="-0.1367">
        <ele>1130.65</ele>
        <time>2013-11-24T13:58:36Z</time>
      </trkpt>
      <trkpt lat="42.97338" lon="-0.13683">
        <ele>1129.69</ele>
        <time>2013-11-24T13:59:06Z</time>
      </trkpt>
      <trkpt lat="42.97365" lon="-0.13757">
        <ele>1118.63</ele>
        <time>2013-11-24T13:59:36Z</time>
      </trkpt>
      <trkpt lat="42.97356" lon="-0.13905">
        <ele>1114.31</ele>
        <time>2013-11-24T14:00:06Z</time>
      </trkpt>
      <trkpt lat="42.97321" lon="-0.14026">
        <ele>1109.98</ele>
        <time>2013-11-24T14:00:36Z</time>
      </trkpt>
      <trkpt lat="42.9727" lon="-0.14142">
        <ele>1102.77</ele>
        <time>2013-11-24T14:01:06Z</time>
      </trkpt>
      <trkpt lat="42.97179" lon="-0.14248">
        <ele>1099.89</ele>
        <time>2013-11-24T14:01:36Z</time>
      </trkpt>
      <trkpt lat="42.97059" lon="-0.1428">
        <ele>1096.52</ele>
        <time>2013-11-24T14:02:06Z</time>
      </trkpt>
      <trkpt lat="42.96971" lon="-0.14277">
        <ele>1090.75</ele>
        <time>2013-11-24T14:02:36Z</time>
      </trkpt>
      <trkpt lat="42.9689" lon="-0.14315">
        <ele>1076.33</ele>
        <time>2013-11-24T14:03:06Z</time>
      </trkpt>
      <trkpt lat="42.96817" lon="-0.14371">
        <ele>1067.68</ele>
        <time>2013-11-24T14:03:36Z</time>
      </trkpt>
      <trkpt lat="42.96795" lon="-0.14393">
        <ele>1062.87</ele>
        <time>2013-11-24T14:04:06Z</time>
      </trkpt>
      <trkpt lat="42.96797" lon="-0.14424">
        <ele>1056.15</ele>
        <time>2013-11-24T14:04:36Z</time>
      </trkpt>
      <trkpt lat="42.96785" lon="-0.14465">
        <ele>1051.82</ele>
        <time>2013-11-24T14:05:06Z</time>
      </trkpt>
      <trkpt lat="42.96746" lon="-0.14524">
        <ele>1042.69</ele>
        <time>2013-11-24T14:05:36Z</time>
      </trkpt>
      <trkpt lat="42.96692" lon="-0.14668">
        <ele>1040.28</ele>
        <time>2013-11-24T14:06:06Z</time>
      </trkpt>
      <trkpt lat="42.96643" lon="-0.14816">
        <ele>1037.4</ele>
        <time>2013-11-24T14:06:36Z</time>
      </trkpt>
      <trkpt lat="42.96596" lon="-0.1494">
        <ele>1033.55</ele>
        <time>2013-11-24T14:07:06Z</time>
      </trkpt>
      <trkpt lat="42.96512" lon="-0.15087">
        <ele>1031.15</ele>
        <time>2013-11-24T14:07:36Z</time>
      </trkpt>
      <trkpt lat="42.96425" lon="-0.15095">
        <ele>1025.86</ele>
        <time>2013-11-24T14:08:05Z</time>
      </trkpt>
      <trkpt lat="42.96468" lon="-0.1514">
        <ele>1013.37</ele>
        <time>2013-11-24T14:08:36Z</time>
      </trkpt>
      <trkpt lat="42.96566" lon="-0.1514">
        <ele>1003.27</ele>
        <time>2013-11-24T14:09:06Z</time>
      </trkpt>
      <trkpt lat="42.96652" lon="-0.15058">
        <ele>996.54</ele>
        <time>2013-11-24T14:09:36Z</time>
      </trkpt>
      <trkpt lat="42.96739" lon="-0.14909">
        <ele>969.63</ele>
        <time>2013-11-24T14:10:06Z</time>
      </trkpt>
      <trkpt lat="42.9678" lon="-0.14839">
        <ele>921.08</ele>
        <time>2013-11-24T14:10:36Z</time>
      </trkpt>
      <trkpt lat="42.96811" lon="-0.14771">
        <ele>905.22</ele>
        <time>2013-11-24T14:11:06Z</time>
      </trkpt>
      <trkpt lat="42.96821" lon="-0.14766">
        <ele>910.51</ele>
        <time>2013-11-24T14:11:36Z</time>
      </trkpt>
      <trkpt lat="42.96834" lon="-0.1475">
        <ele>927.81</ele>
        <time>2013-11-24T14:12:06Z</time>
      </trkpt>
      <trkpt lat="42.96836" lon="-0.14768">
        <ele>947.04</ele>
        <time>2013-11-24T14:12:36Z</time>
      </trkpt>
      <trkpt lat="42.96844" lon="-0.14771">
        <ele>960.01</ele>
        <time>2013-11-24T14:13:06Z</time>
      </trkpt>
      <trkpt lat="42.9684" lon="-0.14775">
        <ele>961.46</ele>
        <time>2013-11-24T14:13:36Z</time>
      </trkpt>
      <trkpt lat="42.96837" lon="-0.14766">
        <ele>964.34</ele>
        <time>2013-11-24T14:14:06Z</time>
      </trkpt>
      <trkpt lat="42.96841" lon="-0.14777">
        <ele>974.43</ele>
        <time>2013-11-24T14:14:36Z</time>
      </trkpt>
      <trkpt lat="42.9684" lon="-0.14774">
        <ele>973.95</ele>
        <time>2013-11-24T14:15:06Z</time>
      </trkpt>
      <trkpt lat="42.96846" lon="-0.14775">
        <ele>973.95</ele>
        <time>2013-11-24T14:15:36Z</time>
      </trkpt>
      <trkpt lat="42.96841" lon="-0.14774">
        <ele>969.63</ele>
        <time>2013-11-24T14:16:06Z</time>
      </trkpt>
      <trkpt lat="42.96845" lon="-0.14771">
        <ele>966.74</ele>
        <time>2013-11-24T14:16:17Z</time>
      </trkpt>
    </trkseg>
  </trk>
</gpx>